ETH706 HAAB-EDDF
Flight info
| Callsign | ETH706 |
|---|---|
| Flight time | 6h 53m |
| Altitude | 36000 |
| Route | AMUDO T124 ALRAP/N0496F370 DCT KSL/N0498F360 DCT TOMRU P751 DANOG/N0492F380 P751 KUNKI T55 TANSA UL613 KOR DCT DIMIS DCT VAKSU DCT MONFA DCT SOTOV DCT NIKWU Q163 OLASO/N0499F320 Q163 HAFUN/N0471F240 Q163 ETASA T163 SPESA SPESA5B |
| Aircraft | A35K/H-SADE3FGHIJ2J3J4J5J7LM1OP1P2P3RUVWXYZ/LB2D1 |
Departure
| Time | 2026-05-07 15:19 |
|---|---|
| Airport | Addis Ababa Bole International Airport (HAAB) |
Arrival
| Time | 2026-05-07 22:12 |
|---|---|
| Airport | Frankfurt Main Airport (EDDF) |
| Time | Latitude | Longitude | Altitude | Speed | Heading |
|---|---|---|---|---|---|
| 2026-05-07 14:57 | 8.98229 | 38.79659 | 7627 ft | 0 kts | 343° |
| 2026-05-07 15:09 | 8.98210 | 38.79666 | 7534 ft | 4 kts | 327° |
| 2026-05-07 15:09 | 8.98191 | 38.79685 | 7534 ft | 4 kts | 292° |
| 2026-05-07 15:09 | 8.98187 | 38.79710 | 7533 ft | 4 kts | 263° |
| 2026-05-07 15:09 | 8.98190 | 38.79728 | 7534 ft | 0 kts | 253° |
| 2026-05-07 15:11 | 8.98189 | 38.79723 | 7531 ft | 2 kts | 253° |
| 2026-05-07 15:12 | 8.98183 | 38.79707 | 7535 ft | 3 kts | 246° |
| 2026-05-07 15:12 | 8.98166 | 38.79679 | 7530 ft | 6 kts | 239° |
| 2026-05-07 15:12 | 8.98129 | 38.79641 | 7530 ft | 10 kts | 221° |
| 2026-05-07 15:12 | 8.98094 | 38.79572 | 7531 ft | 13 kts | 254° |
| 2026-05-07 15:13 | 8.98065 | 38.79470 | 7531 ft | 17 kts | 253° |
| 2026-05-07 15:13 | 8.98027 | 38.79343 | 7531 ft | 21 kts | 253° |
| 2026-05-07 15:13 | 8.97981 | 38.79188 | 7531 ft | 25 kts | 253° |
| 2026-05-07 15:13 | 8.97932 | 38.79020 | 7530 ft | 25 kts | 253° |
| 2026-05-07 15:14 | 8.97884 | 38.78856 | 7530 ft | 24 kts | 253° |
| 2026-05-07 15:14 | 8.97822 | 38.78744 | 7530 ft | 13 kts | 201° |
| 2026-05-07 15:14 | 8.97777 | 38.78679 | 7530 ft | 11 kts | 253° |
| 2026-05-07 15:14 | 8.97754 | 38.78604 | 7529 ft | 11 kts | 253° |
| 2026-05-07 15:15 | 8.97743 | 38.78529 | 7535 ft | 11 kts | 278° |
| 2026-05-07 15:15 | 8.97789 | 38.78481 | 7532 ft | 9 kts | 324° |
| 2026-05-07 15:15 | 8.97798 | 38.78428 | 7532 ft | 8 kts | 258° |
| 2026-05-07 15:15 | 8.97783 | 38.78372 | 7533 ft | 10 kts | 253° |
| 2026-05-07 15:16 | 8.97760 | 38.78291 | 7521 ft | 14 kts | 254° |
| 2026-05-07 15:16 | 8.97719 | 38.78207 | 7525 ft | 10 kts | 203° |
| 2026-05-07 15:16 | 8.97641 | 38.78199 | 7525 ft | 13 kts | 171° |
| 2026-05-07 15:16 | 8.97550 | 38.78223 | 7525 ft | 15 kts | 165° |
| 2026-05-07 15:17 | 8.97448 | 38.78252 | 7525 ft | 15 kts | 156° |
| 2026-05-07 15:17 | 8.97425 | 38.78325 | 7525 ft | 10 kts | 80° |
| 2026-05-07 15:17 | 8.97431 | 38.78351 | 7525 ft | 0 kts | 75° |
| 2026-05-07 15:17 | 8.97432 | 38.78354 | 7525 ft | 3 kts | 75° |
| 2026-05-07 15:18 | 8.97478 | 38.78516 | 7525 ft | 55 kts | 73° |
| 2026-05-07 15:18 | 8.97579 | 38.78861 | 7526 ft | 99 kts | 73° |
| 2026-05-07 15:18 | 8.97834 | 38.79730 | 7530 ft | 157 kts | 73° |
| 2026-05-07 15:18 | 8.98166 | 38.80849 | 7947 ft | 162 kts | 73° |
| 2026-05-07 15:19 | 8.98626 | 38.81852 | 8794 ft | 159 kts | 58° |
| 2026-05-07 15:19 | 8.99586 | 38.82485 | 9320 ft | 182 kts | 16° |
| 2026-05-07 15:19 | 9.00892 | 38.82203 | 9696 ft | 211 kts | 331° |
| 2026-05-07 15:19 | 9.01833 | 38.80980 | 9946 ft | 234 kts | 296° |
| 2026-05-07 15:20 | 9.03153 | 38.79137 | 10225 ft | 252 kts | 323° |
| 2026-05-07 15:20 | 9.04082 | 38.78396 | 10390 ft | 262 kts | 330° |
| 2026-05-07 15:20 | 9.05689 | 38.77417 | 10659 ft | 277 kts | 336° |
| 2026-05-07 15:20 | 9.07465 | 38.76507 | 10925 ft | 294 kts | 339° |
| 2026-05-07 15:21 | 9.09359 | 38.75581 | 11199 ft | 311 kts | 338° |
| 2026-05-07 15:21 | 9.11351 | 38.74585 | 11503 ft | 328 kts | 337° |
| 2026-05-07 15:21 | 9.13428 | 38.73505 | 11800 ft | 342 kts | 335° |
| 2026-05-07 15:21 | 9.15573 | 38.72349 | 12079 ft | 356 kts | 335° |
| 2026-05-07 15:22 | 9.17789 | 38.71129 | 12348 ft | 369 kts | 334° |
| 2026-05-07 15:22 | 9.20047 | 38.69873 | 12595 ft | 381 kts | 334° |
| 2026-05-07 15:22 | 9.22403 | 38.68557 | 12835 ft | 392 kts | 334° |
| 2026-05-07 15:22 | 9.24810 | 38.67213 | 13223 ft | 397 kts | 334° |
| 2026-05-07 15:23 | 9.27233 | 38.65861 | 13742 ft | 399 kts | 333° |
| 2026-05-07 15:23 | 9.29675 | 38.64499 | 14144 ft | 402 kts | 334° |
| 2026-05-07 15:23 | 9.32132 | 38.63129 | 14599 ft | 404 kts | 333° |
| 2026-05-07 15:23 | 9.34597 | 38.61756 | 15106 ft | 404 kts | 334° |
| 2026-05-07 15:24 | 9.37066 | 38.60384 | 15565 ft | 406 kts | 334° |
| 2026-05-07 15:24 | 9.39552 | 38.59005 | 16010 ft | 408 kts | 333° |
| 2026-05-07 15:24 | 9.42052 | 38.57617 | 16477 ft | 411 kts | 333° |
| 2026-05-07 15:24 | 9.44567 | 38.56222 | 16895 ft | 414 kts | 333° |
| 2026-05-07 15:25 | 9.47097 | 38.54816 | 17412 ft | 414 kts | 333° |
| 2026-05-07 15:25 | 9.49626 | 38.53410 | 17918 ft | 414 kts | 333° |
| 2026-05-07 15:25 | 9.52160 | 38.52002 | 18389 ft | 416 kts | 333° |
| 2026-05-07 15:25 | 9.54715 | 38.50582 | 18682 ft | 421 kts | 333° |
| 2026-05-07 15:26 | 9.57259 | 38.49170 | 18980 ft | 425 kts | 333° |
| 2026-05-07 15:26 | 9.59859 | 38.47724 | 19284 ft | 428 kts | 333° |
| 2026-05-07 15:26 | 9.62470 | 38.46271 | 19636 ft | 429 kts | 333° |
| 2026-05-07 15:26 | 9.65100 | 38.44807 | 19966 ft | 432 kts | 333° |
| 2026-05-07 15:27 | 9.67745 | 38.43336 | 20283 ft | 435 kts | 333° |
| 2026-05-07 15:27 | 9.70413 | 38.41853 | 20565 ft | 438 kts | 333° |
| 2026-05-07 15:27 | 9.73102 | 38.40356 | 20784 ft | 444 kts | 332° |
| 2026-05-07 15:27 | 9.75817 | 38.38844 | 21137 ft | 445 kts | 333° |
| 2026-05-07 15:28 | 9.78540 | 38.37327 | 21422 ft | 449 kts | 333° |
| 2026-05-07 15:28 | 9.81296 | 38.35792 | 21681 ft | 453 kts | 332° |
| 2026-05-07 15:28 | 9.84036 | 38.34266 | 21956 ft | 457 kts | 332° |
| 2026-05-07 15:28 | 9.86830 | 38.32710 | 22279 ft | 459 kts | 333° |
| 2026-05-07 15:29 | 9.89650 | 38.31140 | 22593 ft | 462 kts | 332° |
| 2026-05-07 15:29 | 9.92485 | 38.29560 | 22879 ft | 466 kts | 332° |
| 2026-05-07 15:29 | 9.95330 | 38.27973 | 23191 ft | 469 kts | 333° |
| 2026-05-07 15:29 | 9.98204 | 38.26371 | 23441 ft | 473 kts | 332° |
| 2026-05-07 15:30 | 10.01090 | 38.24763 | 23752 ft | 474 kts | 332° |
| 2026-05-07 15:30 | 10.03985 | 38.23150 | 24065 ft | 475 kts | 332° |
| 2026-05-07 15:30 | 10.06888 | 38.21530 | 24354 ft | 477 kts | 332° |
| 2026-05-07 15:30 | 10.09810 | 38.19898 | 24660 ft | 479 kts | 332° |
| 2026-05-07 15:31 | 10.12745 | 38.18260 | 24941 ft | 482 kts | 332° |
| 2026-05-07 15:31 | 10.15657 | 38.16639 | 25278 ft | 483 kts | 331° |
| 2026-05-07 15:31 | 10.18612 | 38.14988 | 25622 ft | 485 kts | 331° |
| 2026-05-07 15:31 | 10.21578 | 38.13331 | 26004 ft | 486 kts | 331° |
| 2026-05-07 15:32 | 10.24551 | 38.11668 | 26341 ft | 490 kts | 331° |
| 2026-05-07 15:32 | 10.27541 | 38.09996 | 26704 ft | 492 kts | 331° |
| 2026-05-07 15:32 | 10.30550 | 38.08314 | 27092 ft | 494 kts | 331° |
| 2026-05-07 15:32 | 10.33571 | 38.06625 | 27496 ft | 496 kts | 331° |
| 2026-05-07 15:33 | 10.36569 | 38.04949 | 27906 ft | 498 kts | 331° |
| 2026-05-07 15:33 | 10.39615 | 38.03246 | 28280 ft | 501 kts | 331° |
| 2026-05-07 15:33 | 10.42672 | 38.01536 | 28620 ft | 503 kts | 331° |
| 2026-05-07 15:33 | 10.45765 | 37.99806 | 28909 ft | 507 kts | 331° |
| 2026-05-07 15:34 | 10.48864 | 37.98072 | 29276 ft | 509 kts | 331° |
| 2026-05-07 15:34 | 10.51979 | 37.96328 | 29605 ft | 511 kts | 331° |
| 2026-05-07 15:34 | 10.55099 | 37.94583 | 29933 ft | 513 kts | 330° |
| 2026-05-07 15:34 | 10.58183 | 37.92860 | 30311 ft | 512 kts | 330° |
| 2026-05-07 15:35 | 10.61300 | 37.91115 | 30750 ft | 510 kts | 330° |
| 2026-05-07 15:35 | 10.64399 | 37.89378 | 31184 ft | 507 kts | 330° |
| 2026-05-07 15:35 | 10.67483 | 37.87648 | 31620 ft | 505 kts | 329° |
| 2026-05-07 15:35 | 10.70553 | 37.85925 | 31975 ft | 504 kts | 330° |
| 2026-05-07 15:36 | 10.73622 | 37.84205 | 32367 ft | 502 kts | 329° |
| 2026-05-07 15:36 | 10.76672 | 37.82494 | 32796 ft | 500 kts | 329° |
| 2026-05-07 15:36 | 10.79716 | 37.80786 | 33218 ft | 498 kts | 329° |
| 2026-05-07 15:36 | 10.82753 | 37.79082 | 33597 ft | 496 kts | 329° |
| 2026-05-07 15:37 | 10.85760 | 37.77395 | 33957 ft | 495 kts | 329° |
| 2026-05-07 15:37 | 10.88767 | 37.75705 | 34268 ft | 493 kts | 329° |
| 2026-05-07 15:37 | 10.91769 | 37.74019 | 34508 ft | 493 kts | 329° |
| 2026-05-07 15:37 | 10.94781 | 37.72328 | 34761 ft | 493 kts | 329° |
| 2026-05-07 15:38 | 10.97767 | 37.70652 | 35095 ft | 490 kts | 330° |
| 2026-05-07 15:38 | 11.00736 | 37.68986 | 35480 ft | 486 kts | 329° |
| 2026-05-07 15:38 | 11.03655 | 37.67346 | 35711 ft | 486 kts | 329° |
| 2026-05-07 15:38 | 11.06622 | 37.65679 | 35887 ft | 487 kts | 329° |
| 2026-05-07 15:39 | 11.12599 | 37.62316 | 35927 ft | 493 kts | 329° |
| 2026-05-07 15:39 | 11.18609 | 37.58933 | 35940 ft | 493 kts | 329° |
| 2026-05-07 15:40 | 11.24623 | 37.55550 | 35938 ft | 493 kts | 329° |
| 2026-05-07 15:40 | 11.30630 | 37.52169 | 35951 ft | 493 kts | 329° |
| 2026-05-07 15:41 | 11.36643 | 37.48781 | 35944 ft | 494 kts | 329° |
| 2026-05-07 15:41 | 11.42638 | 37.45401 | 35943 ft | 495 kts | 329° |
| 2026-05-07 15:42 | 11.48669 | 37.42000 | 35945 ft | 496 kts | 329° |
| 2026-05-07 15:42 | 11.54710 | 37.38592 | 35928 ft | 496 kts | 329° |
| 2026-05-07 15:43 | 11.60746 | 37.35187 | 35930 ft | 495 kts | 329° |
| 2026-05-07 15:43 | 11.66778 | 37.31780 | 35928 ft | 495 kts | 329° |
| 2026-05-07 15:44 | 11.72814 | 37.28370 | 35928 ft | 496 kts | 329° |
| 2026-05-07 15:44 | 11.78848 | 37.24959 | 35929 ft | 495 kts | 329° |
| 2026-05-07 15:45 | 11.84846 | 37.21565 | 35938 ft | 496 kts | 329° |
| 2026-05-07 15:45 | 11.90884 | 37.18149 | 35940 ft | 496 kts | 329° |
| 2026-05-07 15:46 | 11.99937 | 37.13024 | 35950 ft | 496 kts | 329° |
| 2026-05-07 15:47 | 12.05986 | 37.09598 | 35947 ft | 497 kts | 329° |
| 2026-05-07 15:47 | 12.12040 | 37.06165 | 35947 ft | 498 kts | 329° |
| 2026-05-07 15:48 | 12.18097 | 37.02730 | 35947 ft | 498 kts | 329° |
| 2026-05-07 15:48 | 12.24157 | 36.99290 | 35947 ft | 498 kts | 329° |
| 2026-05-07 15:49 | 12.30169 | 36.95877 | 35944 ft | 497 kts | 329° |
| 2026-05-07 15:49 | 12.36226 | 36.92435 | 35935 ft | 496 kts | 329° |
| 2026-05-07 15:50 | 12.42249 | 36.89012 | 35934 ft | 494 kts | 329° |
| 2026-05-07 15:50 | 12.48253 | 36.85598 | 35933 ft | 494 kts | 329° |
| 2026-05-07 15:51 | 12.54266 | 36.82177 | 35911 ft | 494 kts | 329° |
| 2026-05-07 15:51 | 12.60279 | 36.78753 | 35912 ft | 494 kts | 329° |
| 2026-05-07 15:52 | 12.66285 | 36.75332 | 35906 ft | 494 kts | 329° |
| 2026-05-07 15:52 | 12.72276 | 36.71920 | 35898 ft | 497 kts | 329° |
| 2026-05-07 15:53 | 12.78423 | 36.68650 | 35897 ft | 498 kts | 331° |
| 2026-05-07 15:53 | 12.84637 | 36.65479 | 35897 ft | 498 kts | 331° |
| 2026-05-07 15:54 | 12.90838 | 36.62289 | 35889 ft | 498 kts | 331° |
| 2026-05-07 15:54 | 12.97022 | 36.59077 | 35893 ft | 498 kts | 331° |
| 2026-05-07 15:55 | 13.03221 | 36.55844 | 35884 ft | 500 kts | 331° |
| 2026-05-07 15:55 | 13.09431 | 36.52605 | 35881 ft | 501 kts | 331° |
| 2026-05-07 15:56 | 13.15644 | 36.49364 | 35871 ft | 501 kts | 331° |
| 2026-05-07 15:56 | 13.21837 | 36.46132 | 35876 ft | 503 kts | 331° |
| 2026-05-07 15:57 | 13.28071 | 36.42876 | 35871 ft | 503 kts | 331° |
| 2026-05-07 15:57 | 13.34328 | 36.39607 | 35868 ft | 504 kts | 330° |
| 2026-05-07 15:58 | 13.40587 | 36.36334 | 35868 ft | 505 kts | 330° |
| 2026-05-07 15:58 | 13.46806 | 36.33081 | 35851 ft | 505 kts | 330° |
| 2026-05-07 15:59 | 13.53058 | 36.29808 | 35852 ft | 505 kts | 330° |
| 2026-05-07 15:59 | 13.59319 | 36.26528 | 35845 ft | 505 kts | 330° |
| 2026-05-07 16:00 | 13.65850 | 36.23864 | 35843 ft | 511 kts | 345° |
| 2026-05-07 16:00 | 13.69381 | 36.23313 | 36054 ft | 513 kts | 354° |
| 2026-05-07 16:00 | 13.72947 | 36.23285 | 36357 ft | 513 kts | 359° |
| 2026-05-07 16:00 | 13.76517 | 36.23425 | 36602 ft | 512 kts | 1° |
| 2026-05-07 16:01 | 13.80076 | 36.23639 | 36784 ft | 513 kts | 1° |
| 2026-05-07 16:01 | 13.87250 | 36.24135 | 36829 ft | 518 kts | 1° |
| 2026-05-07 16:02 | 13.94443 | 36.24619 | 36822 ft | 518 kts | 1° |
| 2026-05-07 16:02 | 14.01636 | 36.25075 | 36814 ft | 518 kts | 1° |
| 2026-05-07 16:03 | 14.08824 | 36.25518 | 36818 ft | 517 kts | 1° |
| 2026-05-07 16:03 | 14.15999 | 36.25960 | 36800 ft | 516 kts | 1° |
| 2026-05-07 16:04 | 14.23135 | 36.26401 | 36805 ft | 518 kts | 0° |
| 2026-05-07 16:04 | 14.30339 | 36.26846 | 36797 ft | 519 kts | 0° |
| 2026-05-07 16:05 | 14.36343 | 36.27218 | 36782 ft | 519 kts | 0° |
| 2026-05-07 16:05 | 14.43556 | 36.27665 | 36778 ft | 519 kts | 0° |
| 2026-05-07 16:06 | 14.50781 | 36.28114 | 36769 ft | 520 kts | 0° |
| 2026-05-07 16:06 | 14.58019 | 36.28563 | 36758 ft | 520 kts | 0° |
| 2026-05-07 16:07 | 14.65205 | 36.29009 | 36752 ft | 520 kts | 0° |
| 2026-05-07 16:07 | 14.72439 | 36.29459 | 36745 ft | 520 kts | 0° |
| 2026-05-07 16:08 | 14.79673 | 36.29909 | 36746 ft | 520 kts | 0° |
| 2026-05-07 16:08 | 14.86911 | 36.30360 | 36747 ft | 520 kts | 0° |
| 2026-05-07 16:09 | 14.94148 | 36.30810 | 36749 ft | 521 kts | 0° |
| 2026-05-07 16:09 | 15.01335 | 36.31258 | 36740 ft | 521 kts | 0° |
| 2026-05-07 16:10 | 15.08582 | 36.31711 | 36738 ft | 522 kts | 0° |
| 2026-05-07 16:10 | 15.15840 | 36.32163 | 36734 ft | 522 kts | 0° |
| 2026-05-07 16:11 | 15.23061 | 36.32614 | 36737 ft | 522 kts | 0° |
| 2026-05-07 16:11 | 15.30327 | 36.33068 | 36730 ft | 522 kts | 0° |
| 2026-05-07 16:12 | 15.37605 | 36.33523 | 36730 ft | 524 kts | 0° |
| 2026-05-07 16:12 | 15.44888 | 36.33897 | 36733 ft | 523 kts | 357° |
| 2026-05-07 16:13 | 15.52159 | 36.33854 | 36730 ft | 522 kts | 355° |
| 2026-05-07 16:13 | 15.59377 | 36.33741 | 36731 ft | 522 kts | 356° |
| 2026-05-07 16:14 | 15.66667 | 36.33687 | 36734 ft | 524 kts | 356° |
| 2026-05-07 16:14 | 15.73967 | 36.33673 | 36732 ft | 525 kts | 356° |
| 2026-05-07 16:15 | 15.81273 | 36.33669 | 36728 ft | 525 kts | 356° |
| 2026-05-07 16:15 | 15.88580 | 36.33663 | 36731 ft | 525 kts | 356° |
| 2026-05-07 16:16 | 15.95883 | 36.33655 | 36733 ft | 525 kts | 356° |
| 2026-05-07 16:16 | 16.03157 | 36.33646 | 36732 ft | 525 kts | 356° |
| 2026-05-07 16:17 | 16.10483 | 36.33637 | 36732 ft | 525 kts | 356° |
| 2026-05-07 16:17 | 16.17788 | 36.33628 | 36746 ft | 525 kts | 356° |
| 2026-05-07 16:18 | 16.25106 | 36.33618 | 36735 ft | 527 kts | 356° |
| 2026-05-07 16:18 | 16.32438 | 36.33609 | 36739 ft | 527 kts | 356° |
| 2026-05-07 16:19 | 16.39762 | 36.33600 | 36737 ft | 527 kts | 356° |
| 2026-05-07 16:19 | 16.47097 | 36.33591 | 36750 ft | 527 kts | 356° |
| 2026-05-07 16:20 | 16.54451 | 36.33582 | 36743 ft | 528 kts | 356° |
| 2026-05-07 16:20 | 16.61754 | 36.33573 | 36743 ft | 528 kts | 356° |
| 2026-05-07 16:21 | 16.69115 | 36.33564 | 36748 ft | 528 kts | 356° |
| 2026-05-07 16:21 | 16.76477 | 36.33555 | 36761 ft | 529 kts | 356° |
| 2026-05-07 16:22 | 16.83841 | 36.33545 | 36755 ft | 529 kts | 356° |
| 2026-05-07 16:22 | 16.91219 | 36.33536 | 36756 ft | 529 kts | 356° |
| 2026-05-07 16:23 | 16.98582 | 36.33527 | 36765 ft | 530 kts | 356° |
| 2026-05-07 16:23 | 17.05910 | 36.33518 | 36764 ft | 530 kts | 356° |
| 2026-05-07 16:24 | 17.13293 | 36.33509 | 36757 ft | 530 kts | 356° |
| 2026-05-07 16:24 | 17.20678 | 36.33500 | 36759 ft | 530 kts | 356° |
| 2026-05-07 16:25 | 17.28060 | 36.33491 | 36771 ft | 530 kts | 356° |
| 2026-05-07 16:25 | 17.35440 | 36.33482 | 36770 ft | 531 kts | 355° |
| 2026-05-07 16:26 | 17.42847 | 36.33473 | 36773 ft | 532 kts | 355° |
| 2026-05-07 16:26 | 17.50249 | 36.33464 | 36774 ft | 532 kts | 355° |
| 2026-05-07 16:27 | 17.57661 | 36.33454 | 36774 ft | 532 kts | 355° |
| 2026-05-07 16:27 | 17.65026 | 36.33445 | 36776 ft | 532 kts | 355° |
| 2026-05-07 16:28 | 17.72432 | 36.33436 | 36791 ft | 532 kts | 355° |
| 2026-05-07 16:28 | 17.79841 | 36.33426 | 36772 ft | 532 kts | 355° |
| 2026-05-07 16:29 | 17.87250 | 36.33418 | 36791 ft | 532 kts | 355° |
| 2026-05-07 16:29 | 17.94673 | 36.33409 | 36779 ft | 534 kts | 355° |
| 2026-05-07 16:30 | 18.02104 | 36.33399 | 36782 ft | 534 kts | 355° |
| 2026-05-07 16:30 | 18.09494 | 36.33390 | 36782 ft | 534 kts | 355° |
| 2026-05-07 16:31 | 18.16977 | 36.33381 | 36790 ft | 535 kts | 355° |
| 2026-05-07 16:31 | 18.24382 | 36.33371 | 36794 ft | 536 kts | 355° |
| 2026-05-07 16:32 | 18.31845 | 36.33362 | 36801 ft | 536 kts | 355° |
| 2026-05-07 16:32 | 18.39313 | 36.33353 | 36801 ft | 536 kts | 355° |
| 2026-05-07 16:33 | 18.46779 | 36.33344 | 36812 ft | 538 kts | 355° |
| 2026-05-07 16:33 | 18.54286 | 36.33333 | 36818 ft | 539 kts | 355° |
| 2026-05-07 16:34 | 18.61789 | 36.33324 | 36818 ft | 539 kts | 355° |
| 2026-05-07 16:34 | 18.69246 | 36.33316 | 36829 ft | 539 kts | 355° |
| 2026-05-07 16:35 | 18.76757 | 36.33306 | 36835 ft | 541 kts | 355° |
| 2026-05-07 16:35 | 18.84290 | 36.33296 | 36834 ft | 541 kts | 355° |
| 2026-05-07 16:36 | 18.91833 | 36.33287 | 36845 ft | 541 kts | 355° |
| 2026-05-07 16:36 | 18.99376 | 36.33279 | 36856 ft | 542 kts | 354° |
| 2026-05-07 16:37 | 19.06896 | 36.33269 | 36853 ft | 544 kts | 355° |
| 2026-05-07 16:37 | 19.14480 | 36.33260 | 36850 ft | 544 kts | 354° |
| 2026-05-07 16:38 | 19.22045 | 36.33250 | 36856 ft | 544 kts | 354° |
| 2026-05-07 16:38 | 19.29625 | 36.33240 | 36858 ft | 544 kts | 354° |
| 2026-05-07 16:39 | 19.37152 | 36.33230 | 36854 ft | 545 kts | 354° |
| 2026-05-07 16:39 | 19.44736 | 36.33220 | 36855 ft | 545 kts | 354° |
| 2026-05-07 16:40 | 19.52322 | 36.33210 | 36875 ft | 545 kts | 354° |
| 2026-05-07 16:40 | 19.59885 | 36.33200 | 36854 ft | 546 kts | 354° |
| 2026-05-07 16:41 | 19.67489 | 36.33191 | 36851 ft | 546 kts | 354° |
| 2026-05-07 16:41 | 19.75109 | 36.33181 | 36849 ft | 547 kts | 354° |
| 2026-05-07 16:42 | 19.82716 | 36.33172 | 36850 ft | 547 kts | 354° |
| 2026-05-07 16:42 | 19.90345 | 36.33161 | 36846 ft | 548 kts | 354° |
| 2026-05-07 16:43 | 19.97971 | 36.33151 | 36837 ft | 548 kts | 354° |
| 2026-05-07 16:43 | 20.05549 | 36.33141 | 36834 ft | 548 kts | 354° |
| 2026-05-07 16:44 | 20.13180 | 36.33133 | 36835 ft | 548 kts | 353° |
| 2026-05-07 16:44 | 20.20801 | 36.33123 | 36836 ft | 547 kts | 353° |
| 2026-05-07 16:45 | 20.28426 | 36.33113 | 36835 ft | 547 kts | 353° |
| 2026-05-07 16:45 | 20.36044 | 36.33102 | 36833 ft | 548 kts | 353° |
| 2026-05-07 16:46 | 20.43667 | 36.33091 | 36837 ft | 548 kts | 353° |
| 2026-05-07 16:46 | 20.51288 | 36.33083 | 36837 ft | 548 kts | 353° |
| 2026-05-07 16:47 | 20.58919 | 36.33073 | 36836 ft | 548 kts | 353° |
| 2026-05-07 16:47 | 20.66544 | 36.33062 | 36842 ft | 547 kts | 353° |
| 2026-05-07 16:48 | 20.73874 | 36.31902 | 36846 ft | 526 kts | 333° |
| 2026-05-07 16:48 | 20.77207 | 36.30428 | 36845 ft | 512 kts | 323° |
| 2026-05-07 16:48 | 20.80282 | 36.28548 | 36844 ft | 507 kts | 320° |
| 2026-05-07 16:49 | 20.86217 | 36.24509 | 36841 ft | 505 kts | 318° |
| 2026-05-07 16:49 | 20.92104 | 36.20357 | 36855 ft | 507 kts | 318° |
| 2026-05-07 16:50 | 20.98017 | 36.16218 | 36841 ft | 508 kts | 318° |
| 2026-05-07 16:50 | 21.03957 | 36.12093 | 36866 ft | 509 kts | 318° |
| 2026-05-07 16:51 | 21.09904 | 36.07974 | 36844 ft | 508 kts | 318° |
| 2026-05-07 16:51 | 21.15842 | 36.03857 | 36866 ft | 508 kts | 318° |
| 2026-05-07 16:52 | 21.21733 | 35.99762 | 36861 ft | 508 kts | 318° |
| 2026-05-07 16:52 | 21.27660 | 35.95640 | 36854 ft | 507 kts | 318° |
| 2026-05-07 16:53 | 21.33570 | 35.91529 | 36853 ft | 506 kts | 318° |
| 2026-05-07 16:53 | 21.39475 | 35.87415 | 36861 ft | 506 kts | 318° |
| 2026-05-07 16:54 | 21.44389 | 35.83987 | 36865 ft | 506 kts | 318° |
| 2026-05-07 16:54 | 21.51262 | 35.79189 | 36870 ft | 506 kts | 318° |
| 2026-05-07 16:55 | 21.56180 | 35.75753 | 36896 ft | 506 kts | 318° |
| 2026-05-07 16:55 | 21.62048 | 35.71655 | 36877 ft | 500 kts | 318° |
| 2026-05-07 16:56 | 21.67856 | 35.67591 | 36878 ft | 498 kts | 318° |
| 2026-05-07 16:56 | 21.76557 | 35.61486 | 36894 ft | 497 kts | 318° |
| 2026-05-07 16:57 | 21.82361 | 35.57411 | 36894 ft | 497 kts | 318° |
| 2026-05-07 16:57 | 21.88124 | 35.53362 | 36929 ft | 497 kts | 318° |
| 2026-05-07 16:58 | 21.93894 | 35.49307 | 36895 ft | 493 kts | 318° |
| 2026-05-07 16:58 | 21.99642 | 35.45263 | 36906 ft | 492 kts | 318° |
| 2026-05-07 16:59 | 22.05390 | 35.41240 | 36909 ft | 492 kts | 319° |
| 2026-05-07 16:59 | 22.11164 | 35.37232 | 36914 ft | 493 kts | 319° |
| 2026-05-07 17:00 | 22.16888 | 35.33259 | 36912 ft | 493 kts | 319° |
| 2026-05-07 17:00 | 22.22661 | 35.29242 | 36919 ft | 492 kts | 319° |
| 2026-05-07 17:01 | 22.28403 | 35.25241 | 36921 ft | 491 kts | 319° |
| 2026-05-07 17:01 | 22.34131 | 35.21246 | 36914 ft | 488 kts | 319° |
| 2026-05-07 17:02 | 22.39825 | 35.17266 | 36917 ft | 487 kts | 319° |
| 2026-05-07 17:02 | 22.45490 | 35.13301 | 36912 ft | 487 kts | 319° |
| 2026-05-07 17:03 | 22.51163 | 35.09330 | 36912 ft | 486 kts | 319° |
| 2026-05-07 17:03 | 22.56830 | 35.05360 | 36904 ft | 483 kts | 320° |
| 2026-05-07 17:04 | 22.62462 | 35.01412 | 36914 ft | 481 kts | 320° |
| 2026-05-07 17:04 | 22.68047 | 34.97488 | 36907 ft | 480 kts | 320° |
| 2026-05-07 17:05 | 22.73638 | 34.93562 | 36904 ft | 478 kts | 320° |
| 2026-05-07 17:05 | 22.79224 | 34.89630 | 36904 ft | 478 kts | 320° |
| 2026-05-07 17:06 | 22.84802 | 34.85699 | 36931 ft | 478 kts | 320° |
| 2026-05-07 17:06 | 22.90375 | 34.81769 | 36901 ft | 478 kts | 320° |
| 2026-05-07 17:07 | 22.95949 | 34.77836 | 36901 ft | 478 kts | 320° |
| 2026-05-07 17:07 | 23.01522 | 34.73899 | 36903 ft | 478 kts | 320° |
| 2026-05-07 17:08 | 23.07089 | 34.69963 | 36897 ft | 477 kts | 321° |
| 2026-05-07 17:08 | 23.12614 | 34.66055 | 36896 ft | 477 kts | 321° |
| 2026-05-07 17:09 | 23.18171 | 34.62115 | 36907 ft | 477 kts | 321° |
| 2026-05-07 17:09 | 23.23720 | 34.58180 | 36897 ft | 475 kts | 321° |
| 2026-05-07 17:10 | 23.29265 | 34.54248 | 36896 ft | 475 kts | 321° |
| 2026-05-07 17:10 | 23.34775 | 34.50331 | 36894 ft | 475 kts | 321° |
| 2026-05-07 17:11 | 23.40311 | 34.46391 | 36896 ft | 473 kts | 322° |
| 2026-05-07 17:11 | 23.45774 | 34.42506 | 36886 ft | 466 kts | 322° |
| 2026-05-07 17:12 | 23.51194 | 34.38642 | 36888 ft | 465 kts | 322° |
| 2026-05-07 17:12 | 23.56608 | 34.34776 | 36890 ft | 465 kts | 322° |
| 2026-05-07 17:13 | 23.62020 | 34.30909 | 36889 ft | 465 kts | 322° |
| 2026-05-07 17:13 | 23.67435 | 34.27037 | 36887 ft | 465 kts | 322° |
| 2026-05-07 17:14 | 23.72851 | 34.23162 | 36889 ft | 465 kts | 322° |
| 2026-05-07 17:14 | 23.78221 | 34.19316 | 36892 ft | 462 kts | 322° |
| 2026-05-07 17:15 | 23.83572 | 34.15484 | 36888 ft | 458 kts | 322° |
| 2026-05-07 17:15 | 23.88901 | 34.11690 | 36889 ft | 456 kts | 322° |
| 2026-05-07 17:16 | 23.94224 | 34.07903 | 36889 ft | 456 kts | 322° |
| 2026-05-07 17:16 | 23.99542 | 34.04115 | 36892 ft | 456 kts | 322° |
| 2026-05-07 17:17 | 24.04857 | 34.00322 | 36892 ft | 456 kts | 322° |
| 2026-05-07 17:17 | 24.10136 | 33.96551 | 36892 ft | 456 kts | 322° |
| 2026-05-07 17:18 | 24.15438 | 33.92760 | 36897 ft | 452 kts | 322° |
| 2026-05-07 17:18 | 24.20690 | 33.89004 | 36895 ft | 450 kts | 322° |
| 2026-05-07 17:19 | 24.25920 | 33.85255 | 36895 ft | 449 kts | 322° |
| 2026-05-07 17:19 | 24.31147 | 33.81505 | 36891 ft | 449 kts | 322° |
| 2026-05-07 17:20 | 24.36380 | 33.77748 | 36890 ft | 449 kts | 322° |
| 2026-05-07 17:20 | 24.41609 | 33.73991 | 36896 ft | 449 kts | 322° |
| 2026-05-07 17:21 | 24.46807 | 33.70252 | 36909 ft | 449 kts | 322° |
| 2026-05-07 17:21 | 24.52020 | 33.66498 | 36904 ft | 446 kts | 323° |
| 2026-05-07 17:22 | 24.57186 | 33.62776 | 36903 ft | 443 kts | 323° |
| 2026-05-07 17:22 | 24.62332 | 33.59062 | 36892 ft | 443 kts | 323° |
| 2026-05-07 17:23 | 24.67463 | 33.55355 | 36912 ft | 442 kts | 323° |
| 2026-05-07 17:23 | 24.72612 | 33.51633 | 36912 ft | 442 kts | 323° |
| 2026-05-07 17:24 | 24.77758 | 33.47909 | 36948 ft | 442 kts | 323° |
| 2026-05-07 17:24 | 24.82904 | 33.44180 | 36903 ft | 443 kts | 323° |
| 2026-05-07 17:25 | 24.88051 | 33.40448 | 36903 ft | 443 kts | 323° |
| 2026-05-07 17:25 | 24.93201 | 33.36709 | 36905 ft | 443 kts | 323° |
| 2026-05-07 17:26 | 24.98316 | 33.32993 | 36905 ft | 443 kts | 323° |
| 2026-05-07 17:26 | 25.03455 | 33.29255 | 36905 ft | 442 kts | 323° |
| 2026-05-07 17:27 | 25.08592 | 33.25515 | 36908 ft | 442 kts | 323° |
| 2026-05-07 17:27 | 25.13743 | 33.21760 | 36909 ft | 443 kts | 323° |
| 2026-05-07 17:28 | 25.18893 | 33.18004 | 36909 ft | 444 kts | 323° |
| 2026-05-07 17:28 | 25.21433 | 33.16150 | 37044 ft | 443 kts | 323° |
| 2026-05-07 17:28 | 25.23987 | 33.14288 | 37495 ft | 437 kts | 323° |
| 2026-05-07 17:29 | 25.26521 | 33.12442 | 37850 ft | 435 kts | 323° |
| 2026-05-07 17:29 | 25.29049 | 33.10594 | 37914 ft | 437 kts | 323° |
| 2026-05-07 17:29 | 25.34117 | 33.06880 | 37915 ft | 436 kts | 323° |
| 2026-05-07 17:30 | 25.39145 | 33.03194 | 37913 ft | 436 kts | 323° |
| 2026-05-07 17:30 | 25.44201 | 32.99485 | 37915 ft | 436 kts | 323° |
| 2026-05-07 17:31 | 25.49267 | 32.95768 | 37914 ft | 436 kts | 323° |
| 2026-05-07 17:31 | 25.54325 | 32.92054 | 37914 ft | 436 kts | 323° |
| 2026-05-07 17:32 | 25.59380 | 32.88338 | 37927 ft | 436 kts | 323° |
| 2026-05-07 17:32 | 25.63559 | 32.85263 | 37914 ft | 431 kts | 323° |
| 2026-05-07 17:33 | 25.69356 | 32.80992 | 37911 ft | 430 kts | 323° |
| 2026-05-07 17:33 | 25.74219 | 32.77157 | 37936 ft | 427 kts | 317° |
| 2026-05-07 17:34 | 25.78313 | 32.72417 | 37911 ft | 425 kts | 310° |
| 2026-05-07 17:34 | 25.82128 | 32.67395 | 37911 ft | 425 kts | 309° |
| 2026-05-07 17:35 | 25.85892 | 32.62333 | 37911 ft | 425 kts | 309° |
| 2026-05-07 17:35 | 25.89656 | 32.57280 | 37905 ft | 423 kts | 309° |
| 2026-05-07 17:36 | 25.93384 | 32.52295 | 37906 ft | 422 kts | 309° |
| 2026-05-07 17:36 | 25.97136 | 32.47281 | 37909 ft | 422 kts | 309° |
| 2026-05-07 17:37 | 26.00886 | 32.42264 | 37909 ft | 422 kts | 309° |
| 2026-05-07 17:37 | 26.04632 | 32.37247 | 37905 ft | 422 kts | 309° |
| 2026-05-07 17:38 | 26.08378 | 32.32221 | 37898 ft | 421 kts | 309° |
| 2026-05-07 17:38 | 26.12114 | 32.27208 | 37902 ft | 421 kts | 309° |
| 2026-05-07 17:39 | 26.15830 | 32.22212 | 37900 ft | 422 kts | 309° |
| 2026-05-07 17:39 | 26.19575 | 32.17169 | 37901 ft | 422 kts | 309° |
| 2026-05-07 17:40 | 26.23318 | 32.12127 | 37900 ft | 422 kts | 309° |
| 2026-05-07 17:40 | 26.27059 | 32.07082 | 37875 ft | 422 kts | 309° |
| 2026-05-07 17:41 | 26.30798 | 32.02033 | 37897 ft | 422 kts | 309° |
| 2026-05-07 17:41 | 26.34539 | 31.96977 | 37897 ft | 422 kts | 309° |
| 2026-05-07 17:42 | 26.38286 | 31.91907 | 37895 ft | 423 kts | 309° |
| 2026-05-07 17:42 | 26.42008 | 31.86866 | 37885 ft | 423 kts | 309° |
| 2026-05-07 17:43 | 26.45752 | 31.81788 | 37887 ft | 423 kts | 309° |
| 2026-05-07 17:43 | 26.48861 | 31.77566 | 37887 ft | 423 kts | 309° |
| 2026-05-07 17:44 | 26.52611 | 31.72469 | 37911 ft | 424 kts | 310° |
| 2026-05-07 17:44 | 26.56338 | 31.67398 | 37911 ft | 425 kts | 310° |
| 2026-05-07 17:45 | 26.60091 | 31.62287 | 37936 ft | 425 kts | 310° |
| 2026-05-07 17:45 | 26.63845 | 31.57168 | 37947 ft | 425 kts | 310° |
| 2026-05-07 17:46 | 26.67595 | 31.52049 | 37978 ft | 425 kts | 310° |
| 2026-05-07 17:46 | 26.71344 | 31.46924 | 37995 ft | 426 kts | 310° |
| 2026-05-07 17:47 | 26.75098 | 31.41787 | 37992 ft | 426 kts | 310° |
| 2026-05-07 17:47 | 26.78852 | 31.36645 | 38021 ft | 426 kts | 310° |
| 2026-05-07 17:48 | 26.82577 | 31.31535 | 38024 ft | 426 kts | 310° |
| 2026-05-07 17:48 | 26.86326 | 31.26387 | 38050 ft | 426 kts | 310° |
| 2026-05-07 17:49 | 26.90077 | 31.21231 | 38059 ft | 426 kts | 310° |
| 2026-05-07 17:49 | 26.93822 | 31.16078 | 38073 ft | 426 kts | 310° |
| 2026-05-07 17:50 | 26.97541 | 31.10953 | 38074 ft | 426 kts | 310° |
| 2026-05-07 17:50 | 27.01295 | 31.05799 | 38073 ft | 426 kts | 312° |
| 2026-05-07 17:51 | 27.05644 | 31.01302 | 38076 ft | 425 kts | 322° |
| 2026-05-07 17:51 | 27.10426 | 30.97378 | 38074 ft | 426 kts | 324° |
| 2026-05-07 17:52 | 27.15273 | 30.93547 | 38085 ft | 426 kts | 324° |
| 2026-05-07 17:52 | 27.20099 | 30.89735 | 38089 ft | 426 kts | 324° |
| 2026-05-07 17:53 | 27.24946 | 30.85881 | 38107 ft | 426 kts | 324° |
| 2026-05-07 17:53 | 27.29784 | 30.82019 | 38083 ft | 425 kts | 324° |
| 2026-05-07 17:54 | 27.34584 | 30.78183 | 38083 ft | 425 kts | 324° |
| 2026-05-07 17:54 | 27.39406 | 30.74325 | 38075 ft | 425 kts | 324° |
| 2026-05-07 17:55 | 27.44225 | 30.70465 | 38083 ft | 425 kts | 324° |
| 2026-05-07 17:55 | 27.49052 | 30.66595 | 38083 ft | 425 kts | 324° |
| 2026-05-07 17:56 | 27.53864 | 30.62732 | 38077 ft | 425 kts | 324° |
| 2026-05-07 17:56 | 27.58682 | 30.58861 | 38092 ft | 425 kts | 324° |
| 2026-05-07 17:57 | 27.62672 | 30.55651 | 38083 ft | 423 kts | 324° |
| 2026-05-07 17:57 | 27.68242 | 30.51167 | 38081 ft | 423 kts | 324° |
| 2026-05-07 17:58 | 27.73036 | 30.47302 | 38083 ft | 423 kts | 324° |
| 2026-05-07 17:58 | 27.77827 | 30.43436 | 38078 ft | 423 kts | 324° |
| 2026-05-07 17:59 | 27.82618 | 30.39565 | 38064 ft | 423 kts | 325° |
| 2026-05-07 17:59 | 27.87363 | 30.35726 | 38080 ft | 421 kts | 325° |
| 2026-05-07 18:00 | 27.92126 | 30.31869 | 38078 ft | 419 kts | 325° |
| 2026-05-07 18:00 | 27.96864 | 30.28029 | 38080 ft | 418 kts | 325° |
| 2026-05-07 18:01 | 28.01585 | 30.24198 | 38080 ft | 417 kts | 325° |
| 2026-05-07 18:01 | 28.06303 | 30.20366 | 38078 ft | 417 kts | 325° |
| 2026-05-07 18:02 | 28.13347 | 30.14634 | 38083 ft | 417 kts | 325° |
| 2026-05-07 18:03 | 28.18071 | 30.10786 | 38064 ft | 417 kts | 326° |
| 2026-05-07 18:03 | 28.22785 | 30.06942 | 38087 ft | 417 kts | 326° |
| 2026-05-07 18:04 | 28.27473 | 30.03114 | 38078 ft | 413 kts | 326° |
| 2026-05-07 18:04 | 28.32114 | 29.99322 | 38079 ft | 413 kts | 326° |
| 2026-05-07 18:05 | 28.36778 | 29.95506 | 38075 ft | 413 kts | 326° |
| 2026-05-07 18:05 | 28.41445 | 29.91683 | 38081 ft | 413 kts | 326° |
| 2026-05-07 18:06 | 28.46104 | 29.87863 | 38082 ft | 413 kts | 326° |
| 2026-05-07 18:06 | 28.50737 | 29.84059 | 38077 ft | 413 kts | 326° |
| 2026-05-07 18:07 | 28.55393 | 29.80230 | 38082 ft | 411 kts | 326° |
| 2026-05-07 18:07 | 28.59998 | 29.76441 | 38080 ft | 407 kts | 326° |
| 2026-05-07 18:08 | 28.64583 | 29.72665 | 38077 ft | 407 kts | 326° |
| 2026-05-07 18:08 | 28.69169 | 29.68885 | 38074 ft | 407 kts | 326° |
| 2026-05-07 18:09 | 28.73733 | 29.65118 | 38078 ft | 407 kts | 326° |
| 2026-05-07 18:09 | 28.78321 | 29.61325 | 38077 ft | 407 kts | 326° |
| 2026-05-07 18:10 | 28.82911 | 29.57528 | 38077 ft | 407 kts | 326° |
| 2026-05-07 18:10 | 28.87500 | 29.53727 | 38069 ft | 406 kts | 326° |
| 2026-05-07 18:11 | 28.92028 | 29.49971 | 38078 ft | 404 kts | 326° |
| 2026-05-07 18:11 | 28.96568 | 29.46203 | 38081 ft | 403 kts | 326° |
| 2026-05-07 18:12 | 29.01110 | 29.42429 | 38080 ft | 403 kts | 326° |
| 2026-05-07 18:12 | 29.05650 | 29.38652 | 38078 ft | 403 kts | 326° |
| 2026-05-07 18:13 | 29.10193 | 29.34870 | 38080 ft | 403 kts | 326° |
| 2026-05-07 18:13 | 29.15010 | 29.31626 | 38080 ft | 402 kts | 334° |
| 2026-05-07 18:14 | 29.19988 | 29.28819 | 38080 ft | 400 kts | 335° |
| 2026-05-07 18:14 | 29.24999 | 29.26076 | 38081 ft | 399 kts | 335° |
| 2026-05-07 18:15 | 29.30018 | 29.23328 | 38082 ft | 400 kts | 335° |
| 2026-05-07 18:15 | 29.35048 | 29.20559 | 38084 ft | 401 kts | 335° |
| 2026-05-07 18:16 | 29.40047 | 29.17799 | 38086 ft | 401 kts | 335° |
| 2026-05-07 18:16 | 29.45081 | 29.15015 | 38086 ft | 401 kts | 334° |
| 2026-05-07 18:17 | 29.50094 | 29.12240 | 38089 ft | 398 kts | 335° |
| 2026-05-07 18:17 | 29.55080 | 29.09477 | 38095 ft | 397 kts | 335° |
| 2026-05-07 18:18 | 29.60055 | 29.06717 | 38091 ft | 397 kts | 335° |
| 2026-05-07 18:18 | 29.65035 | 29.03952 | 38097 ft | 397 kts | 335° |
| 2026-05-07 18:19 | 29.69988 | 29.01198 | 38100 ft | 397 kts | 335° |
| 2026-05-07 18:19 | 29.74965 | 28.98428 | 38115 ft | 397 kts | 335° |
| 2026-05-07 18:20 | 29.79928 | 28.95662 | 38102 ft | 395 kts | 334° |
| 2026-05-07 18:20 | 29.84879 | 28.92902 | 38109 ft | 396 kts | 334° |
| 2026-05-07 18:21 | 29.89830 | 28.90137 | 38112 ft | 396 kts | 334° |
| 2026-05-07 18:21 | 29.94791 | 28.87363 | 38115 ft | 396 kts | 334° |
| 2026-05-07 18:22 | 29.99752 | 28.84586 | 38113 ft | 396 kts | 334° |
| 2026-05-07 18:22 | 30.04715 | 28.81806 | 38115 ft | 396 kts | 334° |
| 2026-05-07 18:23 | 30.09677 | 28.79023 | 38125 ft | 396 kts | 334° |
| 2026-05-07 18:23 | 30.14597 | 28.76260 | 38127 ft | 396 kts | 334° |
| 2026-05-07 18:24 | 30.19555 | 28.73472 | 38128 ft | 396 kts | 334° |
| 2026-05-07 18:24 | 30.24515 | 28.70681 | 38128 ft | 396 kts | 334° |
| 2026-05-07 18:25 | 30.29476 | 28.67886 | 38130 ft | 396 kts | 334° |
| 2026-05-07 18:25 | 30.34435 | 28.65089 | 38136 ft | 396 kts | 334° |
| 2026-05-07 18:26 | 30.39380 | 28.62296 | 38136 ft | 395 kts | 334° |
| 2026-05-07 18:26 | 30.44295 | 28.59518 | 38142 ft | 395 kts | 334° |
| 2026-05-07 18:27 | 30.49237 | 28.56721 | 38139 ft | 395 kts | 334° |
| 2026-05-07 18:27 | 30.54183 | 28.53918 | 38142 ft | 395 kts | 334° |
| 2026-05-07 18:28 | 30.59129 | 28.51112 | 38144 ft | 395 kts | 334° |
| 2026-05-07 18:28 | 30.64070 | 28.48306 | 38157 ft | 395 kts | 334° |
| 2026-05-07 18:29 | 30.69005 | 28.45499 | 38164 ft | 394 kts | 334° |
| 2026-05-07 18:29 | 30.73897 | 28.42715 | 38162 ft | 394 kts | 334° |
| 2026-05-07 18:30 | 30.78821 | 28.39909 | 38148 ft | 394 kts | 334° |
| 2026-05-07 18:30 | 30.83752 | 28.37095 | 38148 ft | 394 kts | 334° |
| 2026-05-07 18:31 | 30.88682 | 28.34279 | 38155 ft | 395 kts | 334° |
| 2026-05-07 18:31 | 30.93603 | 28.31465 | 38149 ft | 395 kts | 333° |
| 2026-05-07 18:32 | 30.98541 | 28.28638 | 38145 ft | 395 kts | 333° |
| 2026-05-07 18:32 | 31.03475 | 28.25810 | 38164 ft | 395 kts | 333° |
| 2026-05-07 18:33 | 31.07574 | 28.23458 | 38151 ft | 395 kts | 333° |
| 2026-05-07 18:33 | 31.12511 | 28.20622 | 38148 ft | 395 kts | 333° |
| 2026-05-07 18:34 | 31.17445 | 28.17785 | 38168 ft | 395 kts | 333° |
| 2026-05-07 18:34 | 31.22377 | 28.14945 | 38154 ft | 394 kts | 333° |
| 2026-05-07 18:35 | 31.27246 | 28.12139 | 38152 ft | 394 kts | 333° |
| 2026-05-07 18:35 | 31.32153 | 28.09307 | 38153 ft | 394 kts | 333° |
| 2026-05-07 18:36 | 31.37074 | 28.06464 | 38153 ft | 394 kts | 333° |
| 2026-05-07 18:36 | 31.41997 | 28.03617 | 38158 ft | 394 kts | 333° |
| 2026-05-07 18:37 | 31.46919 | 28.00766 | 38155 ft | 395 kts | 333° |
| 2026-05-07 18:37 | 31.51940 | 27.98182 | 38156 ft | 394 kts | 337° |
| 2026-05-07 18:38 | 31.57004 | 27.95848 | 38155 ft | 394 kts | 337° |
| 2026-05-07 18:38 | 31.62116 | 27.93532 | 38156 ft | 394 kts | 337° |
| 2026-05-07 18:39 | 31.67228 | 27.91215 | 38156 ft | 394 kts | 337° |
| 2026-05-07 18:39 | 31.72339 | 27.88890 | 38159 ft | 394 kts | 337° |
| 2026-05-07 18:40 | 31.77447 | 27.86561 | 38162 ft | 393 kts | 337° |
| 2026-05-07 18:40 | 31.82534 | 27.84238 | 38159 ft | 392 kts | 337° |
| 2026-05-07 18:41 | 31.87610 | 27.81917 | 38156 ft | 392 kts | 337° |
| 2026-05-07 18:41 | 31.92696 | 27.79592 | 38157 ft | 392 kts | 337° |
| 2026-05-07 18:42 | 31.97742 | 27.77273 | 38158 ft | 392 kts | 337° |
| 2026-05-07 18:42 | 32.02823 | 27.74933 | 38172 ft | 391 kts | 337° |
| 2026-05-07 18:43 | 32.07885 | 27.72602 | 38152 ft | 390 kts | 337° |
| 2026-05-07 18:43 | 32.12932 | 27.70276 | 38158 ft | 389 kts | 337° |
| 2026-05-07 18:44 | 32.17979 | 27.67947 | 38155 ft | 389 kts | 337° |
| 2026-05-07 18:44 | 32.22992 | 27.65630 | 38152 ft | 389 kts | 337° |
| 2026-05-07 18:45 | 32.28045 | 27.63294 | 38157 ft | 389 kts | 337° |
| 2026-05-07 18:45 | 32.33089 | 27.60962 | 38156 ft | 388 kts | 336° |
| 2026-05-07 18:46 | 32.38103 | 27.58634 | 38158 ft | 387 kts | 336° |
| 2026-05-07 18:46 | 32.43089 | 27.56312 | 38160 ft | 387 kts | 336° |
| 2026-05-07 18:47 | 32.48106 | 27.53974 | 38160 ft | 387 kts | 336° |
| 2026-05-07 18:47 | 32.53120 | 27.51636 | 38161 ft | 387 kts | 336° |
| 2026-05-07 18:48 | 32.58136 | 27.49296 | 38169 ft | 387 kts | 336° |
| 2026-05-07 18:48 | 32.63137 | 27.46961 | 38148 ft | 386 kts | 336° |
| 2026-05-07 18:49 | 32.68149 | 27.44615 | 38159 ft | 388 kts | 336° |
| 2026-05-07 18:49 | 32.73186 | 27.42259 | 38161 ft | 389 kts | 336° |
| 2026-05-07 18:50 | 32.78221 | 27.39892 | 38163 ft | 389 kts | 336° |
| 2026-05-07 18:50 | 32.83251 | 27.37517 | 38162 ft | 389 kts | 336° |
| 2026-05-07 18:51 | 32.88255 | 27.35153 | 38166 ft | 389 kts | 336° |
| 2026-05-07 18:51 | 32.93281 | 27.32779 | 38167 ft | 389 kts | 336° |
| 2026-05-07 18:52 | 32.98313 | 27.30400 | 38168 ft | 389 kts | 336° |
| 2026-05-07 18:52 | 33.03344 | 27.28018 | 38166 ft | 389 kts | 336° |
| 2026-05-07 18:53 | 33.08344 | 27.25648 | 38164 ft | 389 kts | 336° |
| 2026-05-07 18:53 | 33.13370 | 27.23263 | 38162 ft | 388 kts | 336° |
| 2026-05-07 18:54 | 33.18396 | 27.20874 | 38166 ft | 388 kts | 336° |
| 2026-05-07 18:54 | 33.23418 | 27.18485 | 38161 ft | 388 kts | 336° |
| 2026-05-07 18:55 | 33.28446 | 27.16089 | 38158 ft | 389 kts | 336° |
| 2026-05-07 18:55 | 33.33484 | 27.13685 | 38161 ft | 390 kts | 336° |
| 2026-05-07 18:56 | 33.38532 | 27.11275 | 38168 ft | 390 kts | 336° |
| 2026-05-07 18:56 | 33.43550 | 27.08876 | 38161 ft | 391 kts | 336° |
| 2026-05-07 18:57 | 33.48595 | 27.06460 | 38165 ft | 391 kts | 336° |
| 2026-05-07 18:57 | 33.53649 | 27.04037 | 38161 ft | 391 kts | 336° |
| 2026-05-07 18:58 | 33.58701 | 27.01612 | 38166 ft | 391 kts | 336° |
| 2026-05-07 18:58 | 33.63716 | 26.99202 | 38169 ft | 391 kts | 336° |
| 2026-05-07 18:59 | 33.68764 | 26.96774 | 38156 ft | 391 kts | 336° |
| 2026-05-07 18:59 | 33.73822 | 26.94337 | 38158 ft | 391 kts | 336° |
| 2026-05-07 19:00 | 33.78879 | 26.91897 | 38165 ft | 391 kts | 336° |
| 2026-05-07 19:00 | 33.83904 | 26.89470 | 38153 ft | 391 kts | 336° |
| 2026-05-07 19:01 | 33.88956 | 26.87026 | 38163 ft | 391 kts | 336° |
| 2026-05-07 19:01 | 33.94022 | 26.84572 | 38164 ft | 393 kts | 335° |
| 2026-05-07 19:02 | 33.99041 | 26.81969 | 38169 ft | 392 kts | 330° |
| 2026-05-07 19:02 | 34.03595 | 26.78357 | 38170 ft | 391 kts | 324° |
| 2026-05-07 19:03 | 34.07909 | 26.74410 | 38161 ft | 392 kts | 323° |
| 2026-05-07 19:03 | 34.12218 | 26.70373 | 38161 ft | 392 kts | 322° |
| 2026-05-07 19:04 | 34.16532 | 26.66336 | 38164 ft | 392 kts | 323° |
| 2026-05-07 19:04 | 34.20860 | 26.62301 | 38160 ft | 392 kts | 322° |
| 2026-05-07 19:05 | 34.25184 | 26.58270 | 38163 ft | 393 kts | 322° |
| 2026-05-07 19:05 | 34.29514 | 26.54229 | 38162 ft | 394 kts | 322° |
| 2026-05-07 19:06 | 34.33831 | 26.50192 | 38159 ft | 395 kts | 322° |
| 2026-05-07 19:06 | 34.40352 | 26.44085 | 38158 ft | 395 kts | 322° |
| 2026-05-07 19:07 | 34.44703 | 26.40004 | 38159 ft | 395 kts | 322° |
| 2026-05-07 19:07 | 34.49049 | 26.35922 | 38174 ft | 395 kts | 322° |
| 2026-05-07 19:08 | 34.53399 | 26.31831 | 38161 ft | 396 kts | 322° |
| 2026-05-07 19:08 | 34.57748 | 26.27734 | 38155 ft | 396 kts | 322° |
| 2026-05-07 19:09 | 34.62095 | 26.23634 | 38148 ft | 397 kts | 321° |
| 2026-05-07 19:09 | 34.66431 | 26.19538 | 38145 ft | 398 kts | 321° |
| 2026-05-07 19:10 | 34.70810 | 26.15397 | 38150 ft | 398 kts | 321° |
| 2026-05-07 19:10 | 34.75179 | 26.11259 | 38150 ft | 398 kts | 321° |
| 2026-05-07 19:11 | 34.79553 | 26.07111 | 38161 ft | 398 kts | 321° |
| 2026-05-07 19:11 | 34.83928 | 26.02956 | 38150 ft | 399 kts | 321° |
| 2026-05-07 19:12 | 34.88302 | 25.98797 | 38144 ft | 399 kts | 321° |
| 2026-05-07 19:12 | 34.92644 | 25.94663 | 38137 ft | 399 kts | 321° |
| 2026-05-07 19:13 | 34.97031 | 25.90479 | 38143 ft | 401 kts | 321° |
| 2026-05-07 19:13 | 35.01429 | 25.86278 | 38143 ft | 401 kts | 321° |
| 2026-05-07 19:14 | 35.05835 | 25.82066 | 38145 ft | 403 kts | 321° |
| 2026-05-07 19:14 | 35.10238 | 25.77849 | 38136 ft | 401 kts | 321° |
| 2026-05-07 19:15 | 35.14629 | 25.73625 | 38148 ft | 401 kts | 321° |
| 2026-05-07 19:15 | 35.19006 | 25.69394 | 38136 ft | 401 kts | 321° |
| 2026-05-07 19:16 | 35.23360 | 25.65190 | 38137 ft | 401 kts | 321° |
| 2026-05-07 19:16 | 35.27755 | 25.60959 | 38142 ft | 402 kts | 320° |
| 2026-05-07 19:17 | 35.32161 | 25.56711 | 38134 ft | 404 kts | 320° |
| 2026-05-07 19:17 | 35.36578 | 25.52447 | 38145 ft | 404 kts | 320° |
| 2026-05-07 19:18 | 35.40990 | 25.48181 | 38142 ft | 403 kts | 320° |
| 2026-05-07 19:18 | 35.45364 | 25.43945 | 38130 ft | 403 kts | 320° |
| 2026-05-07 19:19 | 35.49762 | 25.39682 | 38131 ft | 403 kts | 320° |
| 2026-05-07 19:19 | 35.54159 | 25.35412 | 38145 ft | 403 kts | 320° |
| 2026-05-07 19:20 | 35.58560 | 25.31133 | 38145 ft | 404 kts | 320° |
| 2026-05-07 19:20 | 35.62981 | 25.26827 | 38138 ft | 406 kts | 320° |
| 2026-05-07 19:21 | 35.67404 | 25.22513 | 38139 ft | 406 kts | 320° |
| 2026-05-07 19:21 | 35.71797 | 25.18221 | 38129 ft | 406 kts | 320° |
| 2026-05-07 19:22 | 35.76222 | 25.13893 | 38133 ft | 406 kts | 320° |
| 2026-05-07 19:22 | 35.79926 | 25.10266 | 38147 ft | 406 kts | 320° |
| 2026-05-07 19:23 | 35.84322 | 25.05955 | 38135 ft | 406 kts | 320° |
| 2026-05-07 19:23 | 35.88734 | 25.01621 | 38136 ft | 406 kts | 320° |
| 2026-05-07 19:24 | 35.93161 | 24.97267 | 38139 ft | 407 kts | 320° |
| 2026-05-07 19:24 | 35.97586 | 24.92907 | 38154 ft | 406 kts | 320° |
| 2026-05-07 19:25 | 36.02001 | 24.88553 | 38145 ft | 406 kts | 320° |
| 2026-05-07 19:25 | 36.06416 | 24.84191 | 38151 ft | 406 kts | 320° |
| 2026-05-07 19:26 | 36.10799 | 24.79853 | 38144 ft | 406 kts | 320° |
| 2026-05-07 19:26 | 36.15204 | 24.75484 | 38142 ft | 406 kts | 320° |
| 2026-05-07 19:27 | 36.19604 | 24.71114 | 38150 ft | 406 kts | 320° |
| 2026-05-07 19:27 | 36.24006 | 24.66736 | 38142 ft | 406 kts | 320° |
| 2026-05-07 19:28 | 36.28406 | 24.62354 | 38144 ft | 405 kts | 319° |
| 2026-05-07 19:28 | 36.32801 | 24.57969 | 38143 ft | 405 kts | 319° |
| 2026-05-07 19:29 | 36.37193 | 24.53583 | 38144 ft | 405 kts | 319° |
| 2026-05-07 19:29 | 36.41580 | 24.49193 | 38144 ft | 405 kts | 319° |
| 2026-05-07 19:30 | 36.45933 | 24.44832 | 38143 ft | 405 kts | 319° |
| 2026-05-07 19:30 | 36.50322 | 24.40431 | 38141 ft | 405 kts | 319° |
| 2026-05-07 19:31 | 36.54704 | 24.36027 | 38147 ft | 405 kts | 319° |
| 2026-05-07 19:31 | 36.59083 | 24.31618 | 38140 ft | 405 kts | 319° |
| 2026-05-07 19:32 | 36.63462 | 24.27203 | 38143 ft | 405 kts | 319° |
| 2026-05-07 19:32 | 36.67840 | 24.22784 | 38141 ft | 405 kts | 319° |
| 2026-05-07 19:33 | 36.72186 | 24.18390 | 38140 ft | 405 kts | 319° |
| 2026-05-07 19:33 | 36.76561 | 24.13960 | 38135 ft | 405 kts | 319° |
| 2026-05-07 19:34 | 36.80934 | 24.09525 | 38135 ft | 405 kts | 319° |
| 2026-05-07 19:34 | 36.85302 | 24.05090 | 38135 ft | 404 kts | 319° |
| 2026-05-07 19:35 | 36.89669 | 24.00648 | 38135 ft | 405 kts | 319° |
| 2026-05-07 19:35 | 36.94041 | 23.96202 | 38135 ft | 405 kts | 319° |
| 2026-05-07 19:36 | 36.98413 | 23.91746 | 38135 ft | 405 kts | 319° |
| 2026-05-07 19:36 | 37.02752 | 23.87315 | 38130 ft | 405 kts | 319° |
| 2026-05-07 19:37 | 37.07127 | 23.82842 | 38129 ft | 405 kts | 319° |
| 2026-05-07 19:37 | 37.11490 | 23.78376 | 38136 ft | 405 kts | 319° |
| 2026-05-07 19:38 | 37.15855 | 23.73902 | 38119 ft | 404 kts | 318° |
| 2026-05-07 19:38 | 37.20219 | 23.69420 | 38122 ft | 406 kts | 318° |
| 2026-05-07 19:39 | 37.24564 | 23.64951 | 38127 ft | 406 kts | 318° |
| 2026-05-07 19:39 | 37.28945 | 23.60439 | 38127 ft | 407 kts | 318° |
| 2026-05-07 19:40 | 37.33316 | 23.55930 | 38124 ft | 407 kts | 318° |
| 2026-05-07 19:40 | 37.37686 | 23.51415 | 38124 ft | 406 kts | 318° |
| 2026-05-07 19:41 | 37.42048 | 23.46902 | 38125 ft | 406 kts | 318° |
| 2026-05-07 19:41 | 37.46375 | 23.42418 | 38125 ft | 405 kts | 317° |
| 2026-05-07 19:42 | 37.50734 | 23.37895 | 38122 ft | 406 kts | 317° |
| 2026-05-07 19:42 | 37.55088 | 23.33366 | 38125 ft | 406 kts | 317° |
| 2026-05-07 19:43 | 37.59449 | 23.28825 | 38129 ft | 406 kts | 317° |
| 2026-05-07 19:43 | 37.63808 | 23.24279 | 38126 ft | 406 kts | 317° |
| 2026-05-07 19:44 | 37.68162 | 23.19730 | 38136 ft | 406 kts | 317° |
| 2026-05-07 19:44 | 37.72482 | 23.15207 | 38129 ft | 405 kts | 317° |
| 2026-05-07 19:45 | 37.76825 | 23.10653 | 38128 ft | 405 kts | 317° |
| 2026-05-07 19:45 | 37.81171 | 23.06092 | 38123 ft | 406 kts | 317° |
| 2026-05-07 19:46 | 37.85526 | 23.01520 | 38129 ft | 406 kts | 317° |
| 2026-05-07 19:46 | 37.89873 | 22.96946 | 38128 ft | 406 kts | 317° |
| 2026-05-07 19:47 | 37.94214 | 22.92369 | 38126 ft | 406 kts | 317° |
| 2026-05-07 19:47 | 37.98554 | 22.87808 | 38126 ft | 404 kts | 317° |
| 2026-05-07 19:48 | 38.02884 | 22.83256 | 38124 ft | 404 kts | 317° |
| 2026-05-07 19:48 | 38.07208 | 22.78700 | 38127 ft | 404 kts | 317° |
| 2026-05-07 19:49 | 38.11533 | 22.74136 | 38127 ft | 405 kts | 317° |
| 2026-05-07 19:49 | 38.15862 | 22.69558 | 38122 ft | 405 kts | 317° |
| 2026-05-07 19:50 | 38.20164 | 22.65002 | 38124 ft | 405 kts | 317° |
| 2026-05-07 19:50 | 38.24493 | 22.60413 | 38120 ft | 404 kts | 316° |
| 2026-05-07 19:51 | 38.28816 | 22.55821 | 38118 ft | 404 kts | 316° |
| 2026-05-07 19:51 | 38.33145 | 22.51212 | 38123 ft | 404 kts | 316° |
| 2026-05-07 19:52 | 38.37457 | 22.46615 | 38125 ft | 404 kts | 316° |
| 2026-05-07 19:52 | 38.41753 | 22.42031 | 38125 ft | 406 kts | 316° |
| 2026-05-07 19:53 | 38.46088 | 22.37395 | 38129 ft | 408 kts | 316° |
| 2026-05-07 19:53 | 38.50386 | 22.32792 | 38127 ft | 408 kts | 315° |
| 2026-05-07 19:54 | 38.54720 | 22.28142 | 38116 ft | 408 kts | 315° |
| 2026-05-07 19:54 | 38.59066 | 22.23473 | 38134 ft | 408 kts | 316° |
| 2026-05-07 19:55 | 38.63408 | 22.18800 | 38119 ft | 406 kts | 316° |
| 2026-05-07 19:55 | 38.67755 | 22.14115 | 38132 ft | 411 kts | 316° |
| 2026-05-07 19:56 | 38.72111 | 22.09414 | 38135 ft | 409 kts | 315° |
| 2026-05-07 19:56 | 38.76464 | 22.04709 | 38131 ft | 408 kts | 315° |
| 2026-05-07 19:57 | 38.80770 | 22.00045 | 38125 ft | 406 kts | 315° |
| 2026-05-07 19:57 | 38.85088 | 21.95359 | 38129 ft | 406 kts | 315° |
| 2026-05-07 19:58 | 38.89398 | 21.90672 | 38132 ft | 406 kts | 315° |
| 2026-05-07 19:58 | 38.93702 | 21.85985 | 38124 ft | 405 kts | 315° |
| 2026-05-07 19:59 | 38.97980 | 21.81321 | 38126 ft | 405 kts | 315° |
| 2026-05-07 19:59 | 39.02271 | 21.76634 | 38114 ft | 403 kts | 315° |
| 2026-05-07 20:00 | 39.06540 | 21.71957 | 38150 ft | 404 kts | 314° |
| 2026-05-07 20:00 | 39.10805 | 21.67285 | 38126 ft | 402 kts | 314° |
| 2026-05-07 20:01 | 39.15056 | 21.62618 | 38127 ft | 402 kts | 314° |
| 2026-05-07 20:01 | 39.19310 | 21.57943 | 38124 ft | 401 kts | 314° |
| 2026-05-07 20:02 | 39.23533 | 21.53302 | 38124 ft | 401 kts | 314° |
| 2026-05-07 20:02 | 39.27776 | 21.48621 | 38129 ft | 401 kts | 314° |
| 2026-05-07 20:03 | 39.32022 | 21.43926 | 38125 ft | 401 kts | 314° |
| 2026-05-07 20:03 | 39.36264 | 21.39229 | 38134 ft | 402 kts | 313° |
| 2026-05-07 20:04 | 39.40515 | 21.34515 | 38133 ft | 402 kts | 313° |
| 2026-05-07 20:04 | 39.44737 | 21.29828 | 38136 ft | 402 kts | 313° |
| 2026-05-07 20:05 | 39.48981 | 21.25107 | 38138 ft | 402 kts | 313° |
| 2026-05-07 20:05 | 39.53225 | 21.20378 | 38149 ft | 402 kts | 313° |
| 2026-05-07 20:06 | 39.57462 | 21.15649 | 38123 ft | 402 kts | 313° |
| 2026-05-07 20:06 | 39.61707 | 21.10906 | 38142 ft | 403 kts | 313° |
| 2026-05-07 20:07 | 39.65928 | 21.06182 | 38151 ft | 403 kts | 313° |
| 2026-05-07 20:07 | 39.70177 | 21.01412 | 38151 ft | 404 kts | 313° |
| 2026-05-07 20:08 | 39.74438 | 20.96625 | 38152 ft | 404 kts | 313° |
| 2026-05-07 20:08 | 39.78689 | 20.91841 | 38155 ft | 404 kts | 313° |
| 2026-05-07 20:09 | 39.82931 | 20.87058 | 38149 ft | 404 kts | 313° |
| 2026-05-07 20:10 | 39.88580 | 20.80679 | 38161 ft | 403 kts | 312° |
| 2026-05-07 20:10 | 39.93497 | 20.75120 | 38138 ft | 402 kts | 312° |
| 2026-05-07 20:11 | 39.97025 | 20.71119 | 38124 ft | 401 kts | 311° |
| 2026-05-07 20:11 | 40.01918 | 20.65555 | 38112 ft | 401 kts | 311° |
| 2026-05-07 20:12 | 40.05445 | 20.61542 | 38111 ft | 401 kts | 311° |
| 2026-05-07 20:12 | 40.09663 | 20.56823 | 38105 ft | 403 kts | 314° |
| 2026-05-07 20:13 | 40.14101 | 20.52306 | 38113 ft | 404 kts | 315° |
| 2026-05-07 20:13 | 40.18560 | 20.47830 | 38114 ft | 404 kts | 314° |
| 2026-05-07 20:14 | 40.23004 | 20.43300 | 38101 ft | 405 kts | 313° |
| 2026-05-07 20:14 | 40.27439 | 20.38728 | 38101 ft | 405 kts | 313° |
| 2026-05-07 20:15 | 40.31837 | 20.34176 | 38106 ft | 405 kts | 313° |
| 2026-05-07 20:15 | 40.36268 | 20.29584 | 38087 ft | 406 kts | 313° |
| 2026-05-07 20:16 | 40.40700 | 20.24984 | 38106 ft | 405 kts | 313° |
| 2026-05-07 20:16 | 40.45118 | 20.20400 | 38104 ft | 405 kts | 313° |
| 2026-05-07 20:17 | 40.49533 | 20.15808 | 38097 ft | 404 kts | 313° |
| 2026-05-07 20:17 | 40.53917 | 20.11239 | 38085 ft | 406 kts | 312° |
| 2026-05-07 20:18 | 40.58346 | 20.06612 | 38075 ft | 407 kts | 312° |
| 2026-05-07 20:18 | 40.62790 | 20.01962 | 38068 ft | 407 kts | 312° |
| 2026-05-07 20:19 | 40.67229 | 19.97316 | 38073 ft | 407 kts | 312° |
| 2026-05-07 20:19 | 40.71659 | 19.92666 | 38055 ft | 407 kts | 312° |
| 2026-05-07 20:20 | 40.76086 | 19.88010 | 38068 ft | 407 kts | 312° |
| 2026-05-07 20:20 | 40.80486 | 19.83376 | 38061 ft | 407 kts | 312° |
| 2026-05-07 20:21 | 40.84914 | 19.78702 | 38060 ft | 407 kts | 311° |
| 2026-05-07 20:21 | 40.89356 | 19.74002 | 38088 ft | 409 kts | 311° |
| 2026-05-07 20:22 | 40.93799 | 19.69299 | 38056 ft | 409 kts | 311° |
| 2026-05-07 20:22 | 40.98249 | 19.64579 | 38053 ft | 409 kts | 311° |
| 2026-05-07 20:23 | 41.02668 | 19.59884 | 38056 ft | 409 kts | 311° |
| 2026-05-07 20:23 | 41.07101 | 19.55165 | 38057 ft | 409 kts | 311° |
| 2026-05-07 20:24 | 41.11540 | 19.50435 | 38056 ft | 409 kts | 311° |
| 2026-05-07 20:24 | 41.15973 | 19.45698 | 38068 ft | 409 kts | 311° |
| 2026-05-07 20:25 | 41.20418 | 19.40937 | 38056 ft | 411 kts | 311° |
| 2026-05-07 20:25 | 41.24859 | 19.36172 | 38056 ft | 411 kts | 311° |
| 2026-05-07 20:26 | 41.29316 | 19.31386 | 38053 ft | 411 kts | 311° |
| 2026-05-07 20:26 | 41.33533 | 19.26849 | 38053 ft | 411 kts | 311° |
| 2026-05-07 20:27 | 41.37541 | 19.22529 | 38053 ft | 411 kts | 311° |
| 2026-05-07 20:27 | 41.41891 | 19.17832 | 38051 ft | 410 kts | 310° |
| 2026-05-07 20:28 | 41.46170 | 19.13203 | 38056 ft | 410 kts | 310° |
| 2026-05-07 20:28 | 41.50537 | 19.08471 | 38056 ft | 412 kts | 310° |
| 2026-05-07 20:29 | 41.54965 | 19.03662 | 38056 ft | 412 kts | 310° |
| 2026-05-07 20:29 | 41.59395 | 18.98846 | 38056 ft | 412 kts | 310° |
| 2026-05-07 20:30 | 41.63784 | 18.94067 | 38056 ft | 412 kts | 310° |
| 2026-05-07 20:30 | 41.68184 | 18.89265 | 38055 ft | 413 kts | 310° |
| 2026-05-07 20:31 | 41.72617 | 18.84416 | 38057 ft | 413 kts | 310° |
| 2026-05-07 20:31 | 41.76994 | 18.79620 | 38056 ft | 413 kts | 310° |
| 2026-05-07 20:32 | 41.81282 | 18.74914 | 38060 ft | 414 kts | 309° |
| 2026-05-07 20:32 | 41.85529 | 18.70238 | 38057 ft | 416 kts | 309° |
| 2026-05-07 20:33 | 41.89728 | 18.65615 | 38063 ft | 417 kts | 310° |
| 2026-05-07 20:33 | 41.93940 | 18.60965 | 38054 ft | 420 kts | 310° |
| 2026-05-07 20:34 | 41.98134 | 18.56330 | 38049 ft | 421 kts | 310° |
| 2026-05-07 20:34 | 42.01940 | 18.51904 | 38050 ft | 415 kts | 305° |
| 2026-05-07 20:35 | 42.05129 | 18.47583 | 38053 ft | 413 kts | 305° |
| 2026-05-07 20:35 | 42.08371 | 18.43110 | 38058 ft | 413 kts | 304° |
| 2026-05-07 20:36 | 42.12060 | 18.37985 | 38050 ft | 417 kts | 305° |
| 2026-05-07 20:36 | 42.15632 | 18.33010 | 38057 ft | 421 kts | 306° |
| 2026-05-07 20:37 | 42.19175 | 18.28078 | 38051 ft | 428 kts | 307° |
| 2026-05-07 20:37 | 42.22924 | 18.22861 | 38049 ft | 429 kts | 307° |
| 2026-05-07 20:38 | 42.26627 | 18.17704 | 38052 ft | 429 kts | 307° |
| 2026-05-07 20:38 | 42.30655 | 18.12078 | 38053 ft | 429 kts | 307° |
| 2026-05-07 20:39 | 42.34138 | 18.07201 | 38056 ft | 429 kts | 307° |
| 2026-05-07 20:39 | 42.38146 | 18.01577 | 38057 ft | 429 kts | 307° |
| 2026-05-07 20:40 | 42.42180 | 17.95902 | 38062 ft | 431 kts | 307° |
| 2026-05-07 20:40 | 42.45893 | 17.90667 | 38038 ft | 434 kts | 307° |
| 2026-05-07 20:41 | 42.49793 | 17.85166 | 38034 ft | 434 kts | 307° |
| 2026-05-07 20:41 | 42.53954 | 17.79284 | 38052 ft | 434 kts | 307° |
| 2026-05-07 20:42 | 42.58129 | 17.73369 | 38054 ft | 434 kts | 307° |
| 2026-05-07 20:42 | 42.62320 | 17.67414 | 38051 ft | 436 kts | 307° |
| 2026-05-07 20:43 | 42.66524 | 17.61431 | 38067 ft | 437 kts | 308° |
| 2026-05-07 20:43 | 42.70742 | 17.55414 | 38057 ft | 441 kts | 308° |
| 2026-05-07 20:44 | 42.74976 | 17.49368 | 38057 ft | 441 kts | 308° |
| 2026-05-07 20:44 | 42.79208 | 17.43313 | 38052 ft | 441 kts | 308° |
| 2026-05-07 20:45 | 42.83436 | 17.37247 | 38056 ft | 441 kts | 308° |
| 2026-05-07 20:45 | 42.87634 | 17.31210 | 38056 ft | 441 kts | 308° |
| 2026-05-07 20:46 | 42.91860 | 17.25119 | 38075 ft | 442 kts | 308° |
| 2026-05-07 20:46 | 42.96081 | 17.19023 | 38061 ft | 441 kts | 308° |
| 2026-05-07 20:47 | 43.00296 | 17.12924 | 38062 ft | 442 kts | 308° |
| 2026-05-07 20:47 | 43.04516 | 17.06804 | 38064 ft | 441 kts | 308° |
| 2026-05-07 20:48 | 43.08724 | 17.00687 | 38061 ft | 442 kts | 308° |
| 2026-05-07 20:48 | 43.12932 | 16.94557 | 38068 ft | 442 kts | 307° |
| 2026-05-07 20:49 | 43.17137 | 16.88419 | 38079 ft | 442 kts | 307° |
| 2026-05-07 20:49 | 43.21347 | 16.82258 | 38067 ft | 443 kts | 307° |
| 2026-05-07 20:50 | 43.25535 | 16.76118 | 38060 ft | 443 kts | 307° |
| 2026-05-07 20:50 | 43.29750 | 16.69926 | 38059 ft | 443 kts | 307° |
| 2026-05-07 20:51 | 43.33964 | 16.63722 | 38073 ft | 444 kts | 307° |
| 2026-05-07 20:51 | 43.38180 | 16.57500 | 38064 ft | 444 kts | 307° |
| 2026-05-07 20:52 | 43.42366 | 16.51309 | 38070 ft | 445 kts | 307° |
| 2026-05-07 20:52 | 43.46584 | 16.45056 | 38073 ft | 446 kts | 307° |
| 2026-05-07 20:53 | 43.50805 | 16.38785 | 38076 ft | 446 kts | 307° |
| 2026-05-07 20:53 | 43.55024 | 16.32505 | 38082 ft | 446 kts | 307° |
| 2026-05-07 20:54 | 43.59241 | 16.26214 | 38079 ft | 447 kts | 307° |
| 2026-05-07 20:54 | 43.63454 | 16.19913 | 38066 ft | 447 kts | 307° |
| 2026-05-07 20:55 | 43.67670 | 16.13596 | 38066 ft | 447 kts | 307° |
| 2026-05-07 20:55 | 43.71850 | 16.07316 | 38072 ft | 447 kts | 307° |
| 2026-05-07 20:56 | 43.76056 | 16.00984 | 38068 ft | 447 kts | 307° |
| 2026-05-07 20:56 | 43.80260 | 15.94642 | 38071 ft | 447 kts | 306° |
| 2026-05-07 20:57 | 43.83780 | 15.89319 | 38064 ft | 447 kts | 306° |
| 2026-05-07 20:57 | 43.87955 | 15.82996 | 38065 ft | 447 kts | 306° |
| 2026-05-07 20:58 | 43.92154 | 15.76619 | 38063 ft | 448 kts | 307° |
| 2026-05-07 20:58 | 43.96364 | 15.70208 | 38066 ft | 449 kts | 307° |
| 2026-05-07 20:59 | 44.00573 | 15.63786 | 38075 ft | 450 kts | 307° |
| 2026-05-07 20:59 | 44.04782 | 15.57354 | 38073 ft | 450 kts | 306° |
| 2026-05-07 21:00 | 44.08991 | 15.50906 | 38073 ft | 450 kts | 306° |
| 2026-05-07 21:00 | 44.13175 | 15.44480 | 38075 ft | 450 kts | 306° |
| 2026-05-07 21:01 | 44.17374 | 15.38015 | 38077 ft | 451 kts | 307° |
| 2026-05-07 21:01 | 44.21581 | 15.31525 | 38076 ft | 452 kts | 307° |
| 2026-05-07 21:02 | 44.25792 | 15.25014 | 38073 ft | 452 kts | 307° |
| 2026-05-07 21:02 | 44.29995 | 15.18499 | 38063 ft | 451 kts | 306° |
| 2026-05-07 21:03 | 44.34195 | 15.11974 | 38060 ft | 451 kts | 306° |
| 2026-05-07 21:03 | 44.38371 | 15.05471 | 38057 ft | 451 kts | 306° |
| 2026-05-07 21:04 | 44.42572 | 14.98914 | 38058 ft | 452 kts | 307° |
| 2026-05-07 21:04 | 44.46764 | 14.92356 | 38059 ft | 452 kts | 307° |
| 2026-05-07 21:05 | 44.50954 | 14.85786 | 38062 ft | 452 kts | 306° |
| 2026-05-07 21:05 | 44.55138 | 14.79210 | 38061 ft | 452 kts | 306° |
| 2026-05-07 21:06 | 44.59296 | 14.72660 | 38059 ft | 452 kts | 306° |
| 2026-05-07 21:06 | 44.63472 | 14.66066 | 38081 ft | 452 kts | 306° |
| 2026-05-07 21:07 | 44.67645 | 14.59460 | 38053 ft | 452 kts | 306° |
| 2026-05-07 21:07 | 44.71819 | 14.52838 | 38053 ft | 452 kts | 306° |
| 2026-05-07 21:08 | 44.75984 | 14.46215 | 38050 ft | 451 kts | 306° |
| 2026-05-07 21:08 | 44.80138 | 14.39594 | 38054 ft | 451 kts | 306° |
| 2026-05-07 21:09 | 44.84267 | 14.32996 | 38057 ft | 451 kts | 306° |
| 2026-05-07 21:09 | 44.88413 | 14.26355 | 38064 ft | 451 kts | 306° |
| 2026-05-07 21:10 | 44.92564 | 14.19691 | 38055 ft | 452 kts | 306° |
| 2026-05-07 21:10 | 44.96724 | 14.12995 | 38054 ft | 453 kts | 306° |
| 2026-05-07 21:11 | 45.00882 | 14.06288 | 38058 ft | 453 kts | 306° |
| 2026-05-07 21:11 | 45.07081 | 13.96261 | 38053 ft | 453 kts | 306° |
| 2026-05-07 21:12 | 45.11229 | 13.89528 | 38054 ft | 453 kts | 306° |
| 2026-05-07 21:12 | 45.15369 | 13.82794 | 38047 ft | 454 kts | 306° |
| 2026-05-07 21:13 | 45.19521 | 13.76022 | 38049 ft | 455 kts | 306° |
| 2026-05-07 21:13 | 45.23668 | 13.69245 | 38047 ft | 455 kts | 306° |
| 2026-05-07 21:14 | 45.27816 | 13.62448 | 38063 ft | 455 kts | 306° |
| 2026-05-07 21:14 | 45.31928 | 13.55695 | 38046 ft | 454 kts | 306° |
| 2026-05-07 21:15 | 45.36027 | 13.48946 | 38044 ft | 454 kts | 306° |
| 2026-05-07 21:15 | 45.40122 | 13.42187 | 38045 ft | 455 kts | 306° |
| 2026-05-07 21:16 | 45.44169 | 13.35491 | 38041 ft | 455 kts | 306° |
| 2026-05-07 21:16 | 45.48150 | 13.28937 | 38038 ft | 456 kts | 308° |
| 2026-05-07 21:17 | 45.52546 | 13.22708 | 38035 ft | 458 kts | 310° |
| 2026-05-07 21:17 | 45.57115 | 13.16422 | 38031 ft | 459 kts | 311° |
| 2026-05-07 21:18 | 45.61721 | 13.10111 | 38046 ft | 459 kts | 311° |
| 2026-05-07 21:18 | 45.66330 | 13.03775 | 38026 ft | 460 kts | 311° |
| 2026-05-07 21:19 | 45.70937 | 12.97421 | 38036 ft | 460 kts | 311° |
| 2026-05-07 21:19 | 45.75543 | 12.91050 | 38022 ft | 460 kts | 311° |
| 2026-05-07 21:20 | 45.80148 | 12.84665 | 38023 ft | 460 kts | 311° |
| 2026-05-07 21:20 | 45.84745 | 12.78275 | 38021 ft | 460 kts | 311° |
| 2026-05-07 21:21 | 45.89344 | 12.71865 | 38014 ft | 461 kts | 311° |
| 2026-05-07 21:21 | 45.93918 | 12.65475 | 38019 ft | 462 kts | 311° |
| 2026-05-07 21:22 | 45.98520 | 12.59034 | 38017 ft | 462 kts | 311° |
| 2026-05-07 21:22 | 46.03129 | 12.52566 | 38026 ft | 462 kts | 311° |
| 2026-05-07 21:23 | 46.07726 | 12.46096 | 38020 ft | 462 kts | 311° |
| 2026-05-07 21:23 | 46.12323 | 12.39611 | 38025 ft | 462 kts | 311° |
| 2026-05-07 21:24 | 46.16912 | 12.33125 | 38037 ft | 462 kts | 311° |
| 2026-05-07 21:24 | 46.21496 | 12.26625 | 38038 ft | 462 kts | 311° |
| 2026-05-07 21:25 | 46.26077 | 12.20119 | 38053 ft | 462 kts | 311° |
| 2026-05-07 21:25 | 46.30630 | 12.13632 | 38039 ft | 462 kts | 311° |
| 2026-05-07 21:26 | 46.35207 | 12.07099 | 38062 ft | 463 kts | 311° |
| 2026-05-07 21:26 | 46.39789 | 12.00537 | 38052 ft | 464 kts | 311° |
| 2026-05-07 21:27 | 46.44385 | 11.93938 | 38055 ft | 464 kts | 311° |
| 2026-05-07 21:27 | 46.48964 | 11.87350 | 38058 ft | 463 kts | 311° |
| 2026-05-07 21:28 | 46.53539 | 11.80752 | 38051 ft | 463 kts | 311° |
| 2026-05-07 21:28 | 46.58106 | 11.74147 | 38056 ft | 463 kts | 311° |
| 2026-05-07 21:29 | 46.62674 | 11.67522 | 38050 ft | 464 kts | 311° |
| 2026-05-07 21:29 | 46.67236 | 11.60887 | 38045 ft | 464 kts | 310° |
| 2026-05-07 21:30 | 46.71771 | 11.54281 | 38048 ft | 464 kts | 310° |
| 2026-05-07 21:30 | 46.76333 | 11.47619 | 38054 ft | 464 kts | 310° |
| 2026-05-07 21:31 | 46.80889 | 11.40948 | 38053 ft | 465 kts | 310° |
| 2026-05-07 21:31 | 46.85459 | 11.34237 | 38066 ft | 466 kts | 311° |
| 2026-05-07 21:32 | 46.90034 | 11.27505 | 38067 ft | 467 kts | 310° |
| 2026-05-07 21:32 | 46.94852 | 11.21100 | 38068 ft | 473 kts | 320° |
| 2026-05-07 21:33 | 47.00458 | 11.16058 | 38074 ft | 476 kts | 326° |
| 2026-05-07 21:33 | 47.06247 | 11.11314 | 38087 ft | 477 kts | 327° |
| 2026-05-07 21:34 | 47.12061 | 11.06611 | 38085 ft | 477 kts | 326° |
| 2026-05-07 21:34 | 47.17872 | 11.01868 | 38077 ft | 477 kts | 326° |
| 2026-05-07 21:35 | 47.23663 | 10.97110 | 38084 ft | 476 kts | 326° |
| 2026-05-07 21:35 | 47.29404 | 10.92371 | 38094 ft | 476 kts | 326° |
| 2026-05-07 21:36 | 47.35189 | 10.87581 | 38080 ft | 477 kts | 326° |
| 2026-05-07 21:36 | 47.40979 | 10.82778 | 38075 ft | 477 kts | 326° |
| 2026-05-07 21:37 | 47.46764 | 10.77972 | 38076 ft | 477 kts | 326° |
| 2026-05-07 21:37 | 47.52553 | 10.73147 | 38080 ft | 477 kts | 327° |
| 2026-05-07 21:38 | 47.58340 | 10.68312 | 38077 ft | 478 kts | 327° |
| 2026-05-07 21:38 | 47.64135 | 10.63459 | 38081 ft | 478 kts | 327° |
| 2026-05-07 21:39 | 47.69894 | 10.58622 | 38080 ft | 478 kts | 327° |
| 2026-05-07 21:39 | 47.75680 | 10.53750 | 38084 ft | 478 kts | 327° |
| 2026-05-07 21:40 | 47.81456 | 10.48874 | 38075 ft | 478 kts | 327° |
| 2026-05-07 21:40 | 47.87242 | 10.43978 | 38078 ft | 478 kts | 327° |
| 2026-05-07 21:41 | 47.93282 | 10.39726 | 38076 ft | 481 kts | 333° |
| 2026-05-07 21:41 | 47.99490 | 10.35954 | 38068 ft | 482 kts | 334° |
| 2026-05-07 21:42 | 48.04679 | 10.32872 | 38084 ft | 482 kts | 335° |
| 2026-05-07 21:42 | 48.10912 | 10.29165 | 38085 ft | 482 kts | 335° |
| 2026-05-07 21:43 | 48.18149 | 10.24784 | 38075 ft | 481 kts | 332° |
| 2026-05-07 21:43 | 48.22931 | 10.20532 | 38078 ft | 475 kts | 320° |
| 2026-05-07 21:44 | 48.28152 | 10.14470 | 38081 ft | 474 kts | 318° |
| 2026-05-07 21:44 | 48.33252 | 10.08247 | 38081 ft | 474 kts | 317° |
| 2026-05-07 21:45 | 48.38373 | 10.01959 | 38075 ft | 475 kts | 317° |
| 2026-05-07 21:45 | 48.43498 | 9.95685 | 38083 ft | 475 kts | 318° |
| 2026-05-07 21:46 | 48.48623 | 9.89412 | 38081 ft | 475 kts | 318° |
| 2026-05-07 21:46 | 48.53750 | 9.83123 | 38085 ft | 475 kts | 318° |
| 2026-05-07 21:47 | 48.58841 | 9.76862 | 38057 ft | 475 kts | 318° |
| 2026-05-07 21:47 | 48.61390 | 9.73718 | 37647 ft | 471 kts | 317° |
| 2026-05-07 21:47 | 48.63887 | 9.70534 | 36963 ft | 468 kts | 316° |
| 2026-05-07 21:48 | 48.66341 | 9.67287 | 36668 ft | 469 kts | 315° |
| 2026-05-07 21:48 | 48.68782 | 9.64018 | 36365 ft | 468 kts | 315° |
| 2026-05-07 21:48 | 48.71209 | 9.60767 | 35800 ft | 463 kts | 315° |
| 2026-05-07 21:48 | 48.73629 | 9.57536 | 35159 ft | 461 kts | 315° |
| 2026-05-07 21:49 | 48.76038 | 9.54329 | 34473 ft | 460 kts | 315° |
| 2026-05-07 21:49 | 48.78415 | 9.51171 | 33687 ft | 460 kts | 316° |
| 2026-05-07 21:49 | 48.80822 | 9.47976 | 32912 ft | 459 kts | 316° |
| 2026-05-07 21:49 | 48.83216 | 9.44796 | 32137 ft | 457 kts | 316° |
| 2026-05-07 21:50 | 48.85607 | 9.41618 | 31364 ft | 456 kts | 316° |
| 2026-05-07 21:50 | 48.87990 | 9.38445 | 30586 ft | 456 kts | 316° |
| 2026-05-07 21:50 | 48.90404 | 9.35373 | 29714 ft | 458 kts | 321° |
| 2026-05-07 21:50 | 48.93093 | 9.32811 | 29061 ft | 455 kts | 329° |
| 2026-05-07 21:51 | 48.95868 | 9.30546 | 28422 ft | 451 kts | 330° |
| 2026-05-07 21:51 | 48.98658 | 9.28372 | 27816 ft | 447 kts | 331° |
| 2026-05-07 21:51 | 49.01431 | 9.26263 | 27221 ft | 444 kts | 332° |
| 2026-05-07 21:51 | 49.04195 | 9.24179 | 26637 ft | 442 kts | 332° |
| 2026-05-07 21:52 | 49.06942 | 9.22108 | 26033 ft | 439 kts | 332° |
| 2026-05-07 21:52 | 49.09671 | 9.20043 | 25457 ft | 436 kts | 332° |
| 2026-05-07 21:52 | 49.12372 | 9.17989 | 24882 ft | 432 kts | 332° |
| 2026-05-07 21:52 | 49.15051 | 9.15945 | 24296 ft | 429 kts | 332° |
| 2026-05-07 21:53 | 49.17697 | 9.13913 | 23730 ft | 425 kts | 331° |
| 2026-05-07 21:53 | 49.20239 | 9.11663 | 23088 ft | 420 kts | 327° |
| 2026-05-07 21:53 | 49.22707 | 9.09324 | 22543 ft | 416 kts | 326° |
| 2026-05-07 21:53 | 49.25152 | 9.06982 | 21997 ft | 413 kts | 326° |
| 2026-05-07 21:54 | 49.27537 | 9.04688 | 21441 ft | 411 kts | 326° |
| 2026-05-07 21:54 | 49.29979 | 9.02332 | 20896 ft | 408 kts | 326° |
| 2026-05-07 21:54 | 49.32279 | 9.00109 | 20352 ft | 405 kts | 326° |
| 2026-05-07 21:54 | 49.34612 | 8.97850 | 19804 ft | 401 kts | 326° |
| 2026-05-07 21:55 | 49.36951 | 8.95581 | 19248 ft | 399 kts | 326° |
| 2026-05-07 21:55 | 49.39269 | 8.93331 | 18692 ft | 396 kts | 326° |
| 2026-05-07 21:55 | 49.41587 | 8.91076 | 18112 ft | 394 kts | 326° |
| 2026-05-07 21:55 | 49.43734 | 8.88986 | 17541 ft | 392 kts | 326° |
| 2026-05-07 21:56 | 49.45906 | 8.86869 | 17010 ft | 389 kts | 326° |
| 2026-05-07 21:56 | 49.48079 | 8.84749 | 16459 ft | 386 kts | 326° |
| 2026-05-07 21:56 | 49.50259 | 8.82621 | 15923 ft | 383 kts | 326° |
| 2026-05-07 21:56 | 49.52420 | 8.80508 | 15376 ft | 380 kts | 326° |
| 2026-05-07 21:57 | 49.54435 | 8.78538 | 14870 ft | 378 kts | 326° |
| 2026-05-07 21:57 | 49.56580 | 8.76436 | 14320 ft | 375 kts | 326° |
| 2026-05-07 21:57 | 49.58715 | 8.74342 | 13735 ft | 373 kts | 326° |
| 2026-05-07 21:57 | 49.60788 | 8.72308 | 13175 ft | 369 kts | 326° |
| 2026-05-07 21:58 | 49.61889 | 8.71227 | 12881 ft | 368 kts | 326° |
| 2026-05-07 21:58 | 49.63803 | 8.69346 | 12376 ft | 365 kts | 326° |
| 2026-05-07 21:58 | 49.65936 | 8.67246 | 11812 ft | 361 kts | 326° |
| 2026-05-07 21:58 | 49.68031 | 8.65182 | 11512 ft | 349 kts | 326° |
| 2026-05-07 21:59 | 49.70008 | 8.63235 | 11378 ft | 332 kts | 326° |
| 2026-05-07 21:59 | 49.71903 | 8.61366 | 11245 ft | 316 kts | 326° |
| 2026-05-07 21:59 | 49.73712 | 8.59579 | 11104 ft | 301 kts | 326° |
| 2026-05-07 21:59 | 49.75440 | 8.57871 | 10974 ft | 288 kts | 326° |
| 2026-05-07 22:00 | 49.76993 | 8.56281 | 10837 ft | 275 kts | 322° |
| 2026-05-07 22:00 | 49.78284 | 8.54264 | 10713 ft | 266 kts | 302° |
| 2026-05-07 22:00 | 49.79005 | 8.51659 | 10594 ft | 264 kts | 281° |
| 2026-05-07 22:00 | 49.79168 | 8.48836 | 10373 ft | 263 kts | 270° |
| 2026-05-07 22:01 | 49.79155 | 8.46033 | 10092 ft | 263 kts | 269° |
| 2026-05-07 22:01 | 49.79127 | 8.43153 | 9838 ft | 275 kts | 269° |
| 2026-05-07 22:01 | 49.79108 | 8.40151 | 9766 ft | 279 kts | 269° |
| 2026-05-07 22:01 | 49.79095 | 8.37310 | 9307 ft | 279 kts | 269° |
| 2026-05-07 22:02 | 49.79087 | 8.34617 | 8912 ft | 278 kts | 270° |
| 2026-05-07 22:02 | 49.79079 | 8.31858 | 8606 ft | 277 kts | 270° |
| 2026-05-07 22:02 | 49.79072 | 8.29061 | 8318 ft | 276 kts | 270° |
| 2026-05-07 22:02 | 49.79065 | 8.26280 | 8034 ft | 275 kts | 270° |
| 2026-05-07 22:03 | 49.79057 | 8.23422 | 7740 ft | 274 kts | 270° |
| 2026-05-07 22:03 | 49.79049 | 8.20638 | 7444 ft | 273 kts | 270° |
| 2026-05-07 22:03 | 49.79142 | 8.17849 | 7140 ft | 272 kts | 279° |
| 2026-05-07 22:03 | 49.79759 | 8.15314 | 6860 ft | 271 kts | 303° |
| 2026-05-07 22:04 | 49.81046 | 8.13364 | 6572 ft | 270 kts | 328° |
| 2026-05-07 22:04 | 49.82747 | 8.12154 | 6240 ft | 270 kts | 339° |
| 2026-05-07 22:04 | 49.84508 | 8.11149 | 5935 ft | 269 kts | 339° |
| 2026-05-07 22:04 | 49.86303 | 8.10368 | 5642 ft | 266 kts | 353° |
| 2026-05-07 22:05 | 49.88046 | 8.10677 | 5496 ft | 253 kts | 20° |
| 2026-05-07 22:05 | 49.89484 | 8.12014 | 5388 ft | 239 kts | 38° |
| 2026-05-07 22:05 | 49.90672 | 8.13540 | 5279 ft | 227 kts | 39° |
| 2026-05-07 22:05 | 49.91807 | 8.15014 | 5171 ft | 215 kts | 39° |
| 2026-05-07 22:06 | 49.92833 | 8.16330 | 5128 ft | 210 kts | 39° |
| 2026-05-07 22:06 | 49.93901 | 8.17813 | 5009 ft | 213 kts | 49° |
| 2026-05-07 22:06 | 49.94659 | 8.19779 | 4781 ft | 212 kts | 65° |
| 2026-05-07 22:06 | 49.95222 | 8.21890 | 4494 ft | 211 kts | 68° |
| 2026-05-07 22:07 | 49.95730 | 8.24004 | 4252 ft | 212 kts | 69° |
| 2026-05-07 22:07 | 49.96238 | 8.26139 | 4022 ft | 210 kts | 69° |
| 2026-05-07 22:07 | 49.96735 | 8.28269 | 3783 ft | 209 kts | 70° |
| 2026-05-07 22:07 | 49.97231 | 8.30378 | 3505 ft | 206 kts | 69° |
| 2026-05-07 22:08 | 49.97728 | 8.32436 | 3247 ft | 201 kts | 69° |
| 2026-05-07 22:08 | 49.98213 | 8.34456 | 2947 ft | 197 kts | 69° |
| 2026-05-07 22:08 | 49.98687 | 8.36434 | 2688 ft | 192 kts | 70° |
| 2026-05-07 22:08 | 49.99143 | 8.38339 | 2421 ft | 185 kts | 70° |
| 2026-05-07 22:09 | 49.99583 | 8.40180 | 2167 ft | 179 kts | 70° |
| 2026-05-07 22:09 | 50.00007 | 8.41951 | 1921 ft | 169 kts | 70° |
| 2026-05-07 22:09 | 50.00402 | 8.43600 | 1719 ft | 158 kts | 70° |
| 2026-05-07 22:09 | 50.00774 | 8.45156 | 1486 ft | 148 kts | 70° |
| 2026-05-07 22:10 | 50.01121 | 8.46608 | 1299 ft | 138 kts | 69° |
| 2026-05-07 22:10 | 50.01445 | 8.47982 | 1096 ft | 135 kts | 69° |
| 2026-05-07 22:10 | 50.01773 | 8.49348 | 905 ft | 135 kts | 68° |
| 2026-05-07 22:10 | 50.02098 | 8.50722 | 728 ft | 135 kts | 69° |
| 2026-05-07 22:11 | 50.02436 | 8.52077 | 533 ft | 135 kts | 67° |
| 2026-05-07 22:11 | 50.02758 | 8.53435 | 375 ft | 134 kts | 67° |
| 2026-05-07 22:11 | 50.03068 | 8.54722 | 351 ft | 112 kts | 69° |
| 2026-05-07 22:11 | 50.03300 | 8.55694 | 354 ft | 80 kts | 70° |
| 2026-05-07 22:12 | 50.03464 | 8.56380 | 363 ft | 57 kts | 69° |
| 2026-05-07 22:12 | 50.03552 | 8.56746 | 362 ft | 32 kts | 69° |
| 2026-05-07 22:12 | 50.03660 | 8.57021 | 365 ft | 30 kts | 46° |
| 2026-05-07 22:12 | 50.03742 | 8.57134 | 371 ft | 6 kts | 39° |
| 2026-05-07 22:13 | 50.03784 | 8.57187 | 370 ft | 9 kts | 39° |
| 2026-05-07 22:13 | 50.03841 | 8.57260 | 373 ft | 12 kts | 39° |
| 2026-05-07 22:13 | 50.03914 | 8.57353 | 374 ft | 14 kts | 41° |
| 2026-05-07 22:13 | 50.03975 | 8.57485 | 375 ft | 16 kts | 68° |
| 2026-05-07 22:14 | 50.04018 | 8.57667 | 377 ft | 19 kts | 70° |
| 2026-05-07 22:14 | 50.04067 | 8.57879 | 376 ft | 22 kts | 70° |
| 2026-05-07 22:14 | 50.04117 | 8.58082 | 377 ft | 16 kts | 69° |
| 2026-05-07 22:14 | 50.04200 | 8.58178 | 376 ft | 17 kts | 26° |
| 2026-05-07 22:15 | 50.04308 | 8.58191 | 377 ft | 17 kts | 343° |
| 2026-05-07 22:15 | 50.04419 | 8.58125 | 375 ft | 18 kts | 340° |
| 2026-05-07 22:15 | 50.04525 | 8.58065 | 371 ft | 17 kts | 340° |
| 2026-05-07 22:15 | 50.04647 | 8.57993 | 371 ft | 21 kts | 339° |
| 2026-05-07 22:16 | 50.04778 | 8.57917 | 369 ft | 15 kts | 340° |
| 2026-05-07 22:16 | 50.04856 | 8.57808 | 370 ft | 15 kts | 293° |
| 2026-05-07 22:16 | 50.04892 | 8.57667 | 371 ft | 0 kts | 276° |
| 2026-05-07 22:16 | 50.04890 | 8.57661 | 371 ft | 1 kts | 256° |
| 2026-05-07 22:17 | 50.04879 | 8.57651 | 369 ft | 3 kts | 204° |
| 2026-05-07 22:17 | 50.04840 | 8.57626 | 370 ft | 3 kts | 202° |
| 2026-05-07 22:17 | 50.04835 | 8.57623 | 370 ft | 1 kts | 202° |
| 2026-05-07 22:17 | 50.04834 | 8.57622 | 370 ft | 0 kts | 202° |